<?xml version="1.0" encoding="UTF-8" standalone="no" ?>
<gpx xmlns="http://www.topografix.com/GPX/1/1" xmlns:xsi="http://www.w3.org/2001/XMLSchema-instance" xsi:schemaLocation="http://www.topografix.com/GPX/1/1 http://www.topografix.com/GPX/1/1/gpx.xsd" version="1.1" creator="VisuGPX - https://www.visugpx.com">
  <metadata>
    <name>StGN_Chatillon_le_pigeonnier</name>
    <desc><![CDATA[Découvrir le bois du parc du château de Bayère avec sa glacière et son pigeonnier qui domine la vallée d'Azergues et le village de Châtillon.]]></desc>
  </metadata>
  <trk>
    <name><![CDATA[StGN_Chatillon_le_pigeonnier]]></name>
    <trkseg>
      <trkpt lat="45.85454" lon="4.63654">
        <ele>261.6</ele>
        <time>2020-07-04T13:21:23.637Z</time>
      </trkpt>
      <trkpt lat="45.85454" lon="4.63658">
        <ele>261.3</ele>
        <time>2020-07-04T13:21:24.980Z</time>
      </trkpt>
      <trkpt lat="45.85454" lon="4.63664">
        <ele>260.9</ele>
        <time>2020-07-04T13:21:26.326Z</time>
      </trkpt>
      <trkpt lat="45.85454" lon="4.63665">
        <ele>260.8</ele>
        <time>2020-07-04T13:21:27.672Z</time>
      </trkpt>
      <trkpt lat="45.85453" lon="4.63668">
        <ele>260.5</ele>
        <time>2020-07-04T13:21:29.019Z</time>
      </trkpt>
      <trkpt lat="45.85454" lon="4.63683">
        <ele>259.5</ele>
        <time>2020-07-04T13:21:30.373Z</time>
      </trkpt>
      <trkpt lat="45.85455" lon="4.63701">
        <ele>258.8</ele>
        <time>2020-07-04T13:21:31.735Z</time>
      </trkpt>
      <trkpt lat="45.8546" lon="4.63725">
        <ele>258</ele>
        <time>2020-07-04T13:21:33.107Z</time>
      </trkpt>
      <trkpt lat="45.85461" lon="4.63743">
        <ele>257.4</ele>
        <time>2020-07-04T13:21:34.486Z</time>
      </trkpt>
      <trkpt lat="45.8546" lon="4.63768">
        <ele>256.5</ele>
        <time>2020-07-04T13:21:35.876Z</time>
      </trkpt>
      <trkpt lat="45.85459" lon="4.63785">
        <ele>255.9</ele>
        <time>2020-07-04T13:21:37.273Z</time>
      </trkpt>
      <trkpt lat="45.85454" lon="4.63803">
        <ele>257</ele>
        <time>2020-07-04T13:21:38.679Z</time>
      </trkpt>
      <trkpt lat="45.85452" lon="4.63809">
        <ele>257.4</ele>
        <time>2020-07-04T13:21:40.087Z</time>
      </trkpt>
      <trkpt lat="45.85446" lon="4.6382">
        <ele>258.2</ele>
        <time>2020-07-04T13:21:41.501Z</time>
      </trkpt>
      <trkpt lat="45.85444" lon="4.63826">
        <ele>258.6</ele>
        <time>2020-07-04T13:21:42.918Z</time>
      </trkpt>
      <trkpt lat="45.85442" lon="4.63836">
        <ele>259.3</ele>
        <time>2020-07-04T13:21:44.339Z</time>
      </trkpt>
      <trkpt lat="45.85443" lon="4.63843">
        <ele>259.6</ele>
        <time>2020-07-04T13:21:45.763Z</time>
      </trkpt>
      <trkpt lat="45.85444" lon="4.63849">
        <ele>259.9</ele>
        <time>2020-07-04T13:21:47.190Z</time>
      </trkpt>
      <trkpt lat="45.85445" lon="4.63852">
        <ele>260.1</ele>
        <time>2020-07-04T13:21:48.618Z</time>
      </trkpt>
      <trkpt lat="45.85448" lon="4.63856">
        <ele>260.4</ele>
        <time>2020-07-04T13:21:50.049Z</time>
      </trkpt>
      <trkpt lat="45.8545" lon="4.63858">
        <ele>260.5</ele>
        <time>2020-07-04T13:21:51.481Z</time>
      </trkpt>
      <trkpt lat="45.85454" lon="4.6386">
        <ele>260.8</ele>
        <time>2020-07-04T13:21:52.916Z</time>
      </trkpt>
      <trkpt lat="45.85463" lon="4.63865">
        <ele>261.4</ele>
        <time>2020-07-04T13:21:54.356Z</time>
      </trkpt>
      <trkpt lat="45.85474" lon="4.63872">
        <ele>262.1</ele>
        <time>2020-07-04T13:21:55.804Z</time>
      </trkpt>
      <trkpt lat="45.85482" lon="4.63877">
        <ele>262.6</ele>
        <time>2020-07-04T13:21:57.257Z</time>
      </trkpt>
      <trkpt lat="45.85491" lon="4.63882">
        <ele>263.4</ele>
        <time>2020-07-04T13:21:58.716Z</time>
      </trkpt>
      <trkpt lat="45.85497" lon="4.63884">
        <ele>263.9</ele>
        <time>2020-07-04T13:22:00.179Z</time>
      </trkpt>
      <trkpt lat="45.85515" lon="4.63896">
        <ele>265.3</ele>
        <time>2020-07-04T13:22:01.653Z</time>
      </trkpt>
      <trkpt lat="45.85526" lon="4.63907">
        <ele>265.9</ele>
        <time>2020-07-04T13:22:03.136Z</time>
      </trkpt>
      <trkpt lat="45.8553" lon="4.63912">
        <ele>266.1</ele>
        <time>2020-07-04T13:22:04.622Z</time>
      </trkpt>
      <trkpt lat="45.85545" lon="4.63928">
        <ele>267</ele>
        <time>2020-07-04T13:22:06.119Z</time>
      </trkpt>
      <trkpt lat="45.85556" lon="4.63939">
        <ele>267.6</ele>
        <time>2020-07-04T13:22:07.624Z</time>
      </trkpt>
      <trkpt lat="45.8557" lon="4.63954">
        <ele>266.8</ele>
        <time>2020-07-04T13:22:09.140Z</time>
      </trkpt>
      <trkpt lat="45.85585" lon="4.63967">
        <ele>266.1</ele>
        <time>2020-07-04T13:22:10.666Z</time>
      </trkpt>
      <trkpt lat="45.85592" lon="4.63974">
        <ele>265.8</ele>
        <time>2020-07-04T13:22:12.198Z</time>
      </trkpt>
      <trkpt lat="45.85604" lon="4.63984">
        <ele>265.3</ele>
        <time>2020-07-04T13:22:13.738Z</time>
      </trkpt>
      <trkpt lat="45.8562" lon="4.63998">
        <ele>264.6</ele>
        <time>2020-07-04T13:22:15.289Z</time>
      </trkpt>
      <trkpt lat="45.85623" lon="4.64002">
        <ele>264.4</ele>
        <time>2020-07-04T13:22:16.843Z</time>
      </trkpt>
      <trkpt lat="45.85634" lon="4.64014">
        <ele>263.8</ele>
        <time>2020-07-04T13:22:18.405Z</time>
      </trkpt>
      <trkpt lat="45.85637" lon="4.64018">
        <ele>263.7</ele>
        <time>2020-07-04T13:22:19.969Z</time>
      </trkpt>
      <trkpt lat="45.85642" lon="4.64028">
        <ele>263.3</ele>
        <time>2020-07-04T13:22:21.539Z</time>
      </trkpt>
      <trkpt lat="45.85649" lon="4.64046">
        <ele>263.5</ele>
        <time>2020-07-04T13:22:23.117Z</time>
      </trkpt>
      <trkpt lat="45.85653" lon="4.64064">
        <ele>263.8</ele>
        <time>2020-07-04T13:22:24.703Z</time>
      </trkpt>
      <trkpt lat="45.85665" lon="4.64108">
        <ele>264.8</ele>
        <time>2020-07-04T13:22:26.309Z</time>
      </trkpt>
      <trkpt lat="45.85673" lon="4.64126">
        <ele>265.4</ele>
        <time>2020-07-04T13:22:27.924Z</time>
      </trkpt>
      <trkpt lat="45.85683" lon="4.64135">
        <ele>266</ele>
        <time>2020-07-04T13:22:29.546Z</time>
      </trkpt>
      <trkpt lat="45.85694" lon="4.64145">
        <ele>266.6</ele>
        <time>2020-07-04T13:22:31.176Z</time>
      </trkpt>
      <trkpt lat="45.85697" lon="4.64147">
        <ele>266.7</ele>
        <time>2020-07-04T13:22:32.808Z</time>
      </trkpt>
      <trkpt lat="45.8571" lon="4.64157">
        <ele>267.5</ele>
        <time>2020-07-04T13:22:34.449Z</time>
      </trkpt>
      <trkpt lat="45.85718" lon="4.64163">
        <ele>267.9</ele>
        <time>2020-07-04T13:22:36.095Z</time>
      </trkpt>
      <trkpt lat="45.85729" lon="4.6417">
        <ele>268.4</ele>
        <time>2020-07-04T13:22:37.749Z</time>
      </trkpt>
      <trkpt lat="45.85739" lon="4.64178">
        <ele>268.8</ele>
        <time>2020-07-04T13:22:39.410Z</time>
      </trkpt>
      <trkpt lat="45.85751" lon="4.64186">
        <ele>269.3</ele>
        <time>2020-07-04T13:22:41.078Z</time>
      </trkpt>
      <trkpt lat="45.85754" lon="4.64189">
        <ele>269.4</ele>
        <time>2020-07-04T13:22:42.749Z</time>
      </trkpt>
      <trkpt lat="45.8576" lon="4.64195">
        <ele>269.7</ele>
        <time>2020-07-04T13:22:44.424Z</time>
      </trkpt>
      <trkpt lat="45.85767" lon="4.64201">
        <ele>270</ele>
        <time>2020-07-04T13:22:46.104Z</time>
      </trkpt>
      <trkpt lat="45.85771" lon="4.64204">
        <ele>270.2</ele>
        <time>2020-07-04T13:22:47.787Z</time>
      </trkpt>
      <trkpt lat="45.85781" lon="4.64213">
        <ele>270.8</ele>
        <time>2020-07-04T13:22:49.477Z</time>
      </trkpt>
      <trkpt lat="45.85785" lon="4.64215">
        <ele>271</ele>
        <time>2020-07-04T13:22:51.170Z</time>
      </trkpt>
      <trkpt lat="45.85794" lon="4.64225">
        <ele>271.5</ele>
        <time>2020-07-04T13:22:52.869Z</time>
      </trkpt>
      <trkpt lat="45.85803" lon="4.64233">
        <ele>272</ele>
        <time>2020-07-04T13:22:54.575Z</time>
      </trkpt>
      <trkpt lat="45.85809" lon="4.64239">
        <ele>272.3</ele>
        <time>2020-07-04T13:22:56.285Z</time>
      </trkpt>
      <trkpt lat="45.85813" lon="4.64242">
        <ele>272.4</ele>
        <time>2020-07-04T13:22:57.998Z</time>
      </trkpt>
      <trkpt lat="45.85823" lon="4.6425">
        <ele>272.7</ele>
        <time>2020-07-04T13:22:59.718Z</time>
      </trkpt>
      <trkpt lat="45.85824" lon="4.64252">
        <ele>272.8</ele>
        <time>2020-07-04T13:23:01.439Z</time>
      </trkpt>
      <trkpt lat="45.85824" lon="4.6426">
        <ele>273.1</ele>
        <time>2020-07-04T13:23:03.163Z</time>
      </trkpt>
      <trkpt lat="45.85822" lon="4.64264">
        <ele>273.2</ele>
        <time>2020-07-04T13:23:04.889Z</time>
      </trkpt>
      <trkpt lat="45.85816" lon="4.64276">
        <ele>273.7</ele>
        <time>2020-07-04T13:23:06.621Z</time>
      </trkpt>
      <trkpt lat="45.85798" lon="4.64309">
        <ele>273.7</ele>
        <time>2020-07-04T13:23:08.371Z</time>
      </trkpt>
      <trkpt lat="45.85782" lon="4.64334">
        <ele>273.1</ele>
        <time>2020-07-04T13:23:10.135Z</time>
      </trkpt>
      <trkpt lat="45.85768" lon="4.64354">
        <ele>272.9</ele>
        <time>2020-07-04T13:23:11.911Z</time>
      </trkpt>
      <trkpt lat="45.85755" lon="4.64365">
        <ele>272.7</ele>
        <time>2020-07-04T13:23:13.696Z</time>
      </trkpt>
      <trkpt lat="45.85751" lon="4.64369">
        <ele>272.7</ele>
        <time>2020-07-04T13:23:15.484Z</time>
      </trkpt>
      <trkpt lat="45.8574" lon="4.64381">
        <ele>272.3</ele>
        <time>2020-07-04T13:23:17.281Z</time>
      </trkpt>
      <trkpt lat="45.85728" lon="4.64394">
        <ele>271.6</ele>
        <time>2020-07-04T13:23:19.087Z</time>
      </trkpt>
      <trkpt lat="45.85725" lon="4.64396">
        <ele>271.4</ele>
        <time>2020-07-04T13:23:20.894Z</time>
      </trkpt>
      <trkpt lat="45.8572" lon="4.64402">
        <ele>271</ele>
        <time>2020-07-04T13:23:22.705Z</time>
      </trkpt>
      <trkpt lat="45.85716" lon="4.64407">
        <ele>270.7</ele>
        <time>2020-07-04T13:23:24.520Z</time>
      </trkpt>
      <trkpt lat="45.85699" lon="4.64424">
        <ele>269.3</ele>
        <time>2020-07-04T13:23:26.347Z</time>
      </trkpt>
      <trkpt lat="45.85676" lon="4.64449">
        <ele>268.3</ele>
        <time>2020-07-04T13:23:28.192Z</time>
      </trkpt>
      <trkpt lat="45.85669" lon="4.64456">
        <ele>268</ele>
        <time>2020-07-04T13:23:30.042Z</time>
      </trkpt>
      <trkpt lat="45.8565" lon="4.64477">
        <ele>267</ele>
        <time>2020-07-04T13:23:31.906Z</time>
      </trkpt>
      <trkpt lat="45.85647" lon="4.64478">
        <ele>266.9</ele>
        <time>2020-07-04T13:23:33.772Z</time>
      </trkpt>
      <trkpt lat="45.85644" lon="4.64477">
        <ele>266.8</ele>
        <time>2020-07-04T13:23:35.640Z</time>
      </trkpt>
      <trkpt lat="45.85642" lon="4.64475">
        <ele>266.8</ele>
        <time>2020-07-04T13:23:37.510Z</time>
      </trkpt>
      <trkpt lat="45.85625" lon="4.64454">
        <ele>267</ele>
        <time>2020-07-04T13:23:39.393Z</time>
      </trkpt>
      <trkpt lat="45.8562" lon="4.64451">
        <ele>266.9</ele>
        <time>2020-07-04T13:23:41.279Z</time>
      </trkpt>
      <trkpt lat="45.85618" lon="4.64453">
        <ele>267</ele>
        <time>2020-07-04T13:23:43.167Z</time>
      </trkpt>
      <trkpt lat="45.85618" lon="4.64462">
        <ele>266.9</ele>
        <time>2020-07-04T13:23:45.059Z</time>
      </trkpt>
      <trkpt lat="45.85626" lon="4.64474">
        <ele>266.7</ele>
        <time>2020-07-04T13:23:46.957Z</time>
      </trkpt>
      <trkpt lat="45.85627" lon="4.64476">
        <ele>266.7</ele>
        <time>2020-07-04T13:23:48.856Z</time>
      </trkpt>
      <trkpt lat="45.85638" lon="4.64497">
        <ele>266.5</ele>
        <time>2020-07-04T13:23:50.766Z</time>
      </trkpt>
      <trkpt lat="45.85647" lon="4.64514">
        <ele>266.4</ele>
        <time>2020-07-04T13:23:52.685Z</time>
      </trkpt>
      <trkpt lat="45.85658" lon="4.64535">
        <ele>266.5</ele>
        <time>2020-07-04T13:23:54.616Z</time>
      </trkpt>
      <trkpt lat="45.85666" lon="4.64552">
        <ele>266.3</ele>
        <time>2020-07-04T13:23:56.555Z</time>
      </trkpt>
      <trkpt lat="45.85675" lon="4.64572">
        <ele>266</ele>
        <time>2020-07-04T13:23:58.504Z</time>
      </trkpt>
      <trkpt lat="45.85677" lon="4.64575">
        <ele>266</ele>
        <time>2020-07-04T13:24:00.455Z</time>
      </trkpt>
      <trkpt lat="45.85691" lon="4.64604">
        <ele>265.8</ele>
        <time>2020-07-04T13:24:02.421Z</time>
      </trkpt>
      <trkpt lat="45.85698" lon="4.64621">
        <ele>265.8</ele>
        <time>2020-07-04T13:24:04.395Z</time>
      </trkpt>
      <trkpt lat="45.85703" lon="4.64626">
        <ele>266</ele>
        <time>2020-07-04T13:24:06.373Z</time>
      </trkpt>
      <trkpt lat="45.85705" lon="4.64626">
        <ele>266</ele>
        <time>2020-07-04T13:24:08.352Z</time>
      </trkpt>
      <trkpt lat="45.8571" lon="4.64617">
        <ele>265.9</ele>
        <time>2020-07-04T13:24:10.335Z</time>
      </trkpt>
      <trkpt lat="45.8572" lon="4.646">
        <ele>266.4</ele>
        <time>2020-07-04T13:24:12.328Z</time>
      </trkpt>
      <trkpt lat="45.85721" lon="4.64597">
        <ele>266.5</ele>
        <time>2020-07-04T13:24:14.322Z</time>
      </trkpt>
      <trkpt lat="45.85729" lon="4.64583">
        <ele>267.3</ele>
        <time>2020-07-04T13:24:16.324Z</time>
      </trkpt>
      <trkpt lat="45.85738" lon="4.6457">
        <ele>268.3</ele>
        <time>2020-07-04T13:24:18.334Z</time>
      </trkpt>
      <trkpt lat="45.85748" lon="4.64556">
        <ele>269.3</ele>
        <time>2020-07-04T13:24:20.352Z</time>
      </trkpt>
      <trkpt lat="45.85749" lon="4.64554">
        <ele>269.4</ele>
        <time>2020-07-04T13:24:22.371Z</time>
      </trkpt>
      <trkpt lat="45.85758" lon="4.6454">
        <ele>270.1</ele>
        <time>2020-07-04T13:24:24.398Z</time>
      </trkpt>
      <trkpt lat="45.85768" lon="4.64526">
        <ele>271</ele>
        <time>2020-07-04T13:24:26.434Z</time>
      </trkpt>
      <trkpt lat="45.85771" lon="4.64522">
        <ele>271.2</ele>
        <time>2020-07-04T13:24:28.472Z</time>
      </trkpt>
      <trkpt lat="45.85783" lon="4.64507">
        <ele>272.2</ele>
        <time>2020-07-04T13:24:30.520Z</time>
      </trkpt>
      <trkpt lat="45.85798" lon="4.64489">
        <ele>272.7</ele>
        <time>2020-07-04T13:24:32.580Z</time>
      </trkpt>
      <trkpt lat="45.85803" lon="4.64483">
        <ele>272.9</ele>
        <time>2020-07-04T13:24:34.643Z</time>
      </trkpt>
      <trkpt lat="45.85811" lon="4.64476">
        <ele>273.1</ele>
        <time>2020-07-04T13:24:36.712Z</time>
      </trkpt>
      <trkpt lat="45.85819" lon="4.64467">
        <ele>273.2</ele>
        <time>2020-07-04T13:24:38.787Z</time>
      </trkpt>
      <trkpt lat="45.85826" lon="4.6446">
        <ele>273.2</ele>
        <time>2020-07-04T13:24:40.867Z</time>
      </trkpt>
      <trkpt lat="45.85839" lon="4.64446">
        <ele>273.5</ele>
        <time>2020-07-04T13:24:42.957Z</time>
      </trkpt>
      <trkpt lat="45.85842" lon="4.64442">
        <ele>273.6</ele>
        <time>2020-07-04T13:24:45.050Z</time>
      </trkpt>
      <trkpt lat="45.85856" lon="4.64426">
        <ele>273.9</ele>
        <time>2020-07-04T13:24:47.154Z</time>
      </trkpt>
      <trkpt lat="45.85872" lon="4.6441">
        <ele>273.7</ele>
        <time>2020-07-04T13:24:49.269Z</time>
      </trkpt>
      <trkpt lat="45.85889" lon="4.64394">
        <ele>273.3</ele>
        <time>2020-07-04T13:24:51.396Z</time>
      </trkpt>
      <trkpt lat="45.85896" lon="4.64386">
        <ele>273</ele>
        <time>2020-07-04T13:24:53.529Z</time>
      </trkpt>
      <trkpt lat="45.859" lon="4.64382">
        <ele>272.8</ele>
        <time>2020-07-04T13:24:55.665Z</time>
      </trkpt>
      <trkpt lat="45.8591" lon="4.64372">
        <ele>272.7</ele>
        <time>2020-07-04T13:24:57.808Z</time>
      </trkpt>
      <trkpt lat="45.85914" lon="4.64368">
        <ele>272.7</ele>
        <time>2020-07-04T13:24:59.954Z</time>
      </trkpt>
      <trkpt lat="45.85937" lon="4.64344">
        <ele>272.7</ele>
        <time>2020-07-04T13:25:02.117Z</time>
      </trkpt>
      <trkpt lat="45.85956" lon="4.64318">
        <ele>272.8</ele>
        <time>2020-07-04T13:25:04.296Z</time>
      </trkpt>
      <trkpt lat="45.85973" lon="4.64298">
        <ele>272.8</ele>
        <time>2020-07-04T13:25:06.488Z</time>
      </trkpt>
      <trkpt lat="45.85985" lon="4.64285">
        <ele>273</ele>
        <time>2020-07-04T13:25:08.689Z</time>
      </trkpt>
      <trkpt lat="45.86001" lon="4.64268">
        <ele>273.2</ele>
        <time>2020-07-04T13:25:10.902Z</time>
      </trkpt>
      <trkpt lat="45.86013" lon="4.64266">
        <ele>273.2</ele>
        <time>2020-07-04T13:25:13.123Z</time>
      </trkpt>
      <trkpt lat="45.86019" lon="4.64267">
        <ele>273.2</ele>
        <time>2020-07-04T13:25:15.348Z</time>
      </trkpt>
      <trkpt lat="45.86029" lon="4.64267">
        <ele>273.2</ele>
        <time>2020-07-04T13:25:17.578Z</time>
      </trkpt>
      <trkpt lat="45.86054" lon="4.64264">
        <ele>273.5</ele>
        <time>2020-07-04T13:25:19.823Z</time>
      </trkpt>
      <trkpt lat="45.86057" lon="4.64264">
        <ele>273.5</ele>
        <time>2020-07-04T13:25:22.071Z</time>
      </trkpt>
      <trkpt lat="45.8608" lon="4.64263">
        <ele>272.7</ele>
        <time>2020-07-04T13:25:24.332Z</time>
      </trkpt>
      <trkpt lat="45.86088" lon="4.64263">
        <ele>272.4</ele>
        <time>2020-07-04T13:25:26.598Z</time>
      </trkpt>
      <trkpt lat="45.86128" lon="4.64268">
        <ele>271.1</ele>
        <time>2020-07-04T13:25:28.888Z</time>
      </trkpt>
      <trkpt lat="45.86169" lon="4.64276">
        <ele>270.6</ele>
        <time>2020-07-04T13:25:31.203Z</time>
      </trkpt>
      <trkpt lat="45.86187" lon="4.64278">
        <ele>270.5</ele>
        <time>2020-07-04T13:25:33.529Z</time>
      </trkpt>
      <trkpt lat="45.86213" lon="4.64281">
        <ele>270.3</ele>
        <time>2020-07-04T13:25:35.871Z</time>
      </trkpt>
      <trkpt lat="45.86243" lon="4.64288">
        <ele>269.7</ele>
        <time>2020-07-04T13:25:38.231Z</time>
      </trkpt>
      <trkpt lat="45.86247" lon="4.64289">
        <ele>269.7</ele>
        <time>2020-07-04T13:25:40.593Z</time>
      </trkpt>
      <trkpt lat="45.86276" lon="4.64294">
        <ele>269.3</ele>
        <time>2020-07-04T13:25:42.973Z</time>
      </trkpt>
      <trkpt lat="45.86302" lon="4.64302">
        <ele>269.3</ele>
        <time>2020-07-04T13:25:45.369Z</time>
      </trkpt>
      <trkpt lat="45.86318" lon="4.64307">
        <ele>268.7</ele>
        <time>2020-07-04T13:25:47.775Z</time>
      </trkpt>
      <trkpt lat="45.86319" lon="4.64321">
        <ele>269.6</ele>
        <time>2020-07-04T13:25:50.187Z</time>
      </trkpt>
      <trkpt lat="45.86316" lon="4.64357">
        <ele>272.4</ele>
        <time>2020-07-04T13:25:52.614Z</time>
      </trkpt>
      <trkpt lat="45.86318" lon="4.64361">
        <ele>272.6</ele>
        <time>2020-07-04T13:25:55.043Z</time>
      </trkpt>
      <trkpt lat="45.86322" lon="4.64369">
        <ele>272.9</ele>
        <time>2020-07-04T13:25:57.476Z</time>
      </trkpt>
      <trkpt lat="45.86338" lon="4.64377">
        <ele>272</ele>
        <time>2020-07-04T13:25:59.920Z</time>
      </trkpt>
      <trkpt lat="45.86345" lon="4.64395">
        <ele>272.1</ele>
        <time>2020-07-04T13:26:02.372Z</time>
      </trkpt>
      <trkpt lat="45.86346" lon="4.64405">
        <ele>272.4</ele>
        <time>2020-07-04T13:26:04.828Z</time>
      </trkpt>
      <trkpt lat="45.86345" lon="4.64426">
        <ele>272.4</ele>
        <time>2020-07-04T13:26:07.293Z</time>
      </trkpt>
      <trkpt lat="45.86346" lon="4.64472">
        <ele>272</ele>
        <time>2020-07-04T13:26:09.777Z</time>
      </trkpt>
      <trkpt lat="45.86348" lon="4.64517">
        <ele>270.9</ele>
        <time>2020-07-04T13:26:12.280Z</time>
      </trkpt>
      <trkpt lat="45.86353" lon="4.64569">
        <ele>268.9</ele>
        <time>2020-07-04T13:26:14.805Z</time>
      </trkpt>
      <trkpt lat="45.86359" lon="4.64604">
        <ele>268.5</ele>
        <time>2020-07-04T13:26:17.346Z</time>
      </trkpt>
      <trkpt lat="45.86364" lon="4.64628">
        <ele>268.5</ele>
        <time>2020-07-04T13:26:19.897Z</time>
      </trkpt>
      <trkpt lat="45.86371" lon="4.64661">
        <ele>267.9</ele>
        <time>2020-07-04T13:26:22.463Z</time>
      </trkpt>
      <trkpt lat="45.86378" lon="4.64672">
        <ele>267.6</ele>
        <time>2020-07-04T13:26:25.035Z</time>
      </trkpt>
      <trkpt lat="45.8639" lon="4.6467">
        <ele>267.4</ele>
        <time>2020-07-04T13:26:27.615Z</time>
      </trkpt>
      <trkpt lat="45.86422" lon="4.64659">
        <ele>266</ele>
        <time>2020-07-04T13:26:30.215Z</time>
      </trkpt>
      <trkpt lat="45.86448" lon="4.64647">
        <ele>264.5</ele>
        <time>2020-07-04T13:26:32.831Z</time>
      </trkpt>
      <trkpt lat="45.86456" lon="4.64644">
        <ele>264</ele>
        <time>2020-07-04T13:26:35.452Z</time>
      </trkpt>
      <trkpt lat="45.86478" lon="4.64636">
        <ele>262.6</ele>
        <time>2020-07-04T13:26:38.087Z</time>
      </trkpt>
      <trkpt lat="45.86505" lon="4.64628">
        <ele>261.2</ele>
        <time>2020-07-04T13:26:40.738Z</time>
      </trkpt>
      <trkpt lat="45.86521" lon="4.64623">
        <ele>260.6</ele>
        <time>2020-07-04T13:26:43.399Z</time>
      </trkpt>
      <trkpt lat="45.86528" lon="4.6462">
        <ele>260.3</ele>
        <time>2020-07-04T13:26:46.065Z</time>
      </trkpt>
      <trkpt lat="45.86531" lon="4.64618">
        <ele>260.3</ele>
        <time>2020-07-04T13:26:48.733Z</time>
      </trkpt>
      <trkpt lat="45.86544" lon="4.64613">
        <ele>259.9</ele>
        <time>2020-07-04T13:26:51.409Z</time>
      </trkpt>
      <trkpt lat="45.86554" lon="4.6461">
        <ele>259.4</ele>
        <time>2020-07-04T13:26:54.091Z</time>
      </trkpt>
      <trkpt lat="45.86558" lon="4.6461">
        <ele>259</ele>
        <time>2020-07-04T13:26:56.775Z</time>
      </trkpt>
      <trkpt lat="45.86574" lon="4.64603">
        <ele>257.5</ele>
        <time>2020-07-04T13:26:59.469Z</time>
      </trkpt>
      <trkpt lat="45.86578" lon="4.64601">
        <ele>257.1</ele>
        <time>2020-07-04T13:27:02.166Z</time>
      </trkpt>
      <trkpt lat="45.86582" lon="4.646">
        <ele>256.7</ele>
        <time>2020-07-04T13:27:04.865Z</time>
      </trkpt>
      <trkpt lat="45.86591" lon="4.64597">
        <ele>255.8</ele>
        <time>2020-07-04T13:27:07.570Z</time>
      </trkpt>
      <trkpt lat="45.86613" lon="4.64589">
        <ele>253.6</ele>
        <time>2020-07-04T13:27:10.288Z</time>
      </trkpt>
      <trkpt lat="45.86622" lon="4.64585">
        <ele>252.7</ele>
        <time>2020-07-04T13:27:13.012Z</time>
      </trkpt>
      <trkpt lat="45.86636" lon="4.64579">
        <ele>251.3</ele>
        <time>2020-07-04T13:27:15.745Z</time>
      </trkpt>
      <trkpt lat="45.86654" lon="4.64571">
        <ele>250.5</ele>
        <time>2020-07-04T13:27:18.489Z</time>
      </trkpt>
      <trkpt lat="45.86659" lon="4.64569">
        <ele>250.3</ele>
        <time>2020-07-04T13:27:21.236Z</time>
      </trkpt>
      <trkpt lat="45.86674" lon="4.64561">
        <ele>249.5</ele>
        <time>2020-07-04T13:27:23.993Z</time>
      </trkpt>
      <trkpt lat="45.86677" lon="4.64558">
        <ele>249.3</ele>
        <time>2020-07-04T13:27:26.752Z</time>
      </trkpt>
      <trkpt lat="45.86684" lon="4.64553">
        <ele>248.8</ele>
        <time>2020-07-04T13:27:29.516Z</time>
      </trkpt>
      <trkpt lat="45.86693" lon="4.64542">
        <ele>248.1</ele>
        <time>2020-07-04T13:27:32.287Z</time>
      </trkpt>
      <trkpt lat="45.86696" lon="4.64537">
        <ele>247.9</ele>
        <time>2020-07-04T13:27:35.061Z</time>
      </trkpt>
      <trkpt lat="45.86719" lon="4.64509">
        <ele>246.4</ele>
        <time>2020-07-04T13:27:37.853Z</time>
      </trkpt>
      <trkpt lat="45.86732" lon="4.64494">
        <ele>245.8</ele>
        <time>2020-07-04T13:27:40.655Z</time>
      </trkpt>
      <trkpt lat="45.86737" lon="4.64489">
        <ele>245.7</ele>
        <time>2020-07-04T13:27:43.461Z</time>
      </trkpt>
      <trkpt lat="45.86747" lon="4.64478">
        <ele>245.4</ele>
        <time>2020-07-04T13:27:46.274Z</time>
      </trkpt>
      <trkpt lat="45.86754" lon="4.6447">
        <ele>244.6</ele>
        <time>2020-07-04T13:27:49.093Z</time>
      </trkpt>
      <trkpt lat="45.86756" lon="4.64466">
        <ele>244.3</ele>
        <time>2020-07-04T13:27:51.914Z</time>
      </trkpt>
      <trkpt lat="45.86757" lon="4.64465">
        <ele>244.1</ele>
        <time>2020-07-04T13:27:54.736Z</time>
      </trkpt>
      <trkpt lat="45.86757" lon="4.64465">
        <ele>244.1</ele>
        <time>2020-07-04T13:27:57.558Z</time>
      </trkpt>
      <trkpt lat="45.86757" lon="4.64465">
        <ele>244.1</ele>
        <time>2020-07-04T13:28:00.380Z</time>
      </trkpt>
      <trkpt lat="45.86757" lon="4.64465">
        <ele>244.1</ele>
        <time>2020-07-04T13:28:03.202Z</time>
      </trkpt>
      <trkpt lat="45.86757" lon="4.64464">
        <ele>244.1</ele>
        <time>2020-07-04T13:28:06.024Z</time>
      </trkpt>
      <trkpt lat="45.86757" lon="4.64464">
        <ele>244.1</ele>
        <time>2020-07-04T13:28:08.846Z</time>
      </trkpt>
      <trkpt lat="45.86757" lon="4.64464">
        <ele>244.1</ele>
        <time>2020-07-04T13:28:11.668Z</time>
      </trkpt>
      <trkpt lat="45.86757" lon="4.64464">
        <ele>244.1</ele>
        <time>2020-07-04T13:28:14.490Z</time>
      </trkpt>
      <trkpt lat="45.86757" lon="4.64464">
        <ele>244.1</ele>
        <time>2020-07-04T13:28:17.312Z</time>
      </trkpt>
      <trkpt lat="45.86757" lon="4.64463">
        <ele>244</ele>
        <time>2020-07-04T13:28:20.134Z</time>
      </trkpt>
      <trkpt lat="45.86759" lon="4.6446">
        <ele>243.8</ele>
        <time>2020-07-04T13:28:22.959Z</time>
      </trkpt>
      <trkpt lat="45.86771" lon="4.64446">
        <ele>242.5</ele>
        <time>2020-07-04T13:28:25.793Z</time>
      </trkpt>
      <trkpt lat="45.86775" lon="4.64442">
        <ele>242.2</ele>
        <time>2020-07-04T13:28:28.630Z</time>
      </trkpt>
      <trkpt lat="45.86794" lon="4.64425">
        <ele>241.2</ele>
        <time>2020-07-04T13:28:31.481Z</time>
      </trkpt>
      <trkpt lat="45.86807" lon="4.64412">
        <ele>240.9</ele>
        <time>2020-07-04T13:28:34.341Z</time>
      </trkpt>
      <trkpt lat="45.8682" lon="4.644">
        <ele>240.3</ele>
        <time>2020-07-04T13:28:37.210Z</time>
      </trkpt>
      <trkpt lat="45.86824" lon="4.64396">
        <ele>240.1</ele>
        <time>2020-07-04T13:28:40.082Z</time>
      </trkpt>
      <trkpt lat="45.86834" lon="4.64385">
        <ele>239.6</ele>
        <time>2020-07-04T13:28:42.962Z</time>
      </trkpt>
      <trkpt lat="45.86851" lon="4.64374">
        <ele>238.7</ele>
        <time>2020-07-04T13:28:45.853Z</time>
      </trkpt>
      <trkpt lat="45.86871" lon="4.64381">
        <ele>237</ele>
        <time>2020-07-04T13:28:48.756Z</time>
      </trkpt>
      <trkpt lat="45.86884" lon="4.64386">
        <ele>236</ele>
        <time>2020-07-04T13:28:51.667Z</time>
      </trkpt>
      <trkpt lat="45.86888" lon="4.64387">
        <ele>235.7</ele>
        <time>2020-07-04T13:28:54.581Z</time>
      </trkpt>
      <trkpt lat="45.86893" lon="4.64388">
        <ele>235.4</ele>
        <time>2020-07-04T13:28:57.498Z</time>
      </trkpt>
      <trkpt lat="45.86897" lon="4.6439">
        <ele>235.1</ele>
        <time>2020-07-04T13:29:00.418Z</time>
      </trkpt>
      <trkpt lat="45.86902" lon="4.64392">
        <ele>234.9</ele>
        <time>2020-07-04T13:29:03.341Z</time>
      </trkpt>
      <trkpt lat="45.86918" lon="4.64396">
        <ele>233.9</ele>
        <time>2020-07-04T13:29:06.273Z</time>
      </trkpt>
      <trkpt lat="45.86934" lon="4.64399">
        <ele>232.8</ele>
        <time>2020-07-04T13:29:09.215Z</time>
      </trkpt>
      <trkpt lat="45.86948" lon="4.64401">
        <ele>231.8</ele>
        <time>2020-07-04T13:29:12.166Z</time>
      </trkpt>
      <trkpt lat="45.86957" lon="4.64401">
        <ele>231.1</ele>
        <time>2020-07-04T13:29:15.122Z</time>
      </trkpt>
      <trkpt lat="45.8696" lon="4.64401">
        <ele>230.9</ele>
        <time>2020-07-04T13:29:18.080Z</time>
      </trkpt>
      <trkpt lat="45.86967" lon="4.644">
        <ele>230.4</ele>
        <time>2020-07-04T13:29:21.042Z</time>
      </trkpt>
      <trkpt lat="45.86973" lon="4.644">
        <ele>230</ele>
        <time>2020-07-04T13:29:24.008Z</time>
      </trkpt>
      <trkpt lat="45.86977" lon="4.64405">
        <ele>229.7</ele>
        <time>2020-07-04T13:29:26.977Z</time>
      </trkpt>
      <trkpt lat="45.86983" lon="4.64401">
        <ele>229.1</ele>
        <time>2020-07-04T13:29:29.950Z</time>
      </trkpt>
      <trkpt lat="45.86985" lon="4.644">
        <ele>229</ele>
        <time>2020-07-04T13:29:32.924Z</time>
      </trkpt>
      <trkpt lat="45.86989" lon="4.64399">
        <ele>228.6</ele>
        <time>2020-07-04T13:29:35.900Z</time>
      </trkpt>
      <trkpt lat="45.87003" lon="4.64393">
        <ele>227.7</ele>
        <time>2020-07-04T13:29:38.885Z</time>
      </trkpt>
      <trkpt lat="45.87019" lon="4.64392">
        <ele>227</ele>
        <time>2020-07-04T13:29:41.880Z</time>
      </trkpt>
      <trkpt lat="45.87038" lon="4.6441">
        <ele>225.4</ele>
        <time>2020-07-04T13:29:44.889Z</time>
      </trkpt>
      <trkpt lat="45.87056" lon="4.64418">
        <ele>224.2</ele>
        <time>2020-07-04T13:29:47.909Z</time>
      </trkpt>
      <trkpt lat="45.87059" lon="4.64423">
        <ele>223.8</ele>
        <time>2020-07-04T13:29:50.932Z</time>
      </trkpt>
      <trkpt lat="45.87062" lon="4.64436">
        <ele>223</ele>
        <time>2020-07-04T13:29:53.961Z</time>
      </trkpt>
      <trkpt lat="45.87063" lon="4.6445">
        <ele>222.4</ele>
        <time>2020-07-04T13:29:56.995Z</time>
      </trkpt>
      <trkpt lat="45.87064" lon="4.64456">
        <ele>222.5</ele>
        <time>2020-07-04T13:30:00.032Z</time>
      </trkpt>
      <trkpt lat="45.87067" lon="4.64481">
        <ele>222.8</ele>
        <time>2020-07-04T13:30:03.080Z</time>
      </trkpt>
      <trkpt lat="45.87073" lon="4.6452">
        <ele>223</ele>
        <time>2020-07-04T13:30:06.144Z</time>
      </trkpt>
      <trkpt lat="45.87076" lon="4.64538">
        <ele>223.1</ele>
        <time>2020-07-04T13:30:09.216Z</time>
      </trkpt>
      <trkpt lat="45.87079" lon="4.64553">
        <ele>223.3</ele>
        <time>2020-07-04T13:30:12.295Z</time>
      </trkpt>
      <trkpt lat="45.87081" lon="4.64554">
        <ele>223.2</ele>
        <time>2020-07-04T13:30:15.375Z</time>
      </trkpt>
      <trkpt lat="45.87087" lon="4.64551">
        <ele>222.9</ele>
        <time>2020-07-04T13:30:18.458Z</time>
      </trkpt>
      <trkpt lat="45.87105" lon="4.64545">
        <ele>221.9</ele>
        <time>2020-07-04T13:30:21.553Z</time>
      </trkpt>
      <trkpt lat="45.8713" lon="4.64536">
        <ele>220.5</ele>
        <time>2020-07-04T13:30:24.663Z</time>
      </trkpt>
      <trkpt lat="45.87148" lon="4.6453">
        <ele>218.9</ele>
        <time>2020-07-04T13:30:27.784Z</time>
      </trkpt>
      <trkpt lat="45.87168" lon="4.64517">
        <ele>216.5</ele>
        <time>2020-07-04T13:30:30.919Z</time>
      </trkpt>
      <trkpt lat="45.87171" lon="4.64515">
        <ele>216.1</ele>
        <time>2020-07-04T13:30:34.056Z</time>
      </trkpt>
      <trkpt lat="45.87185" lon="4.64506">
        <ele>214.4</ele>
        <time>2020-07-04T13:30:37.202Z</time>
      </trkpt>
      <trkpt lat="45.87192" lon="4.64501">
        <ele>213.6</ele>
        <time>2020-07-04T13:30:40.353Z</time>
      </trkpt>
      <trkpt lat="45.87198" lon="4.64497">
        <ele>213.3</ele>
        <time>2020-07-04T13:30:43.507Z</time>
      </trkpt>
      <trkpt lat="45.87206" lon="4.6449">
        <ele>212.7</ele>
        <time>2020-07-04T13:30:46.667Z</time>
      </trkpt>
      <trkpt lat="45.87209" lon="4.64488">
        <ele>212.5</ele>
        <time>2020-07-04T13:30:49.829Z</time>
      </trkpt>
      <trkpt lat="45.87212" lon="4.64487">
        <ele>212.4</ele>
        <time>2020-07-04T13:30:52.993Z</time>
      </trkpt>
      <trkpt lat="45.87223" lon="4.64479">
        <ele>211.6</ele>
        <time>2020-07-04T13:30:56.164Z</time>
      </trkpt>
      <trkpt lat="45.87227" lon="4.64475">
        <ele>211.4</ele>
        <time>2020-07-04T13:30:59.338Z</time>
      </trkpt>
      <trkpt lat="45.87235" lon="4.64468">
        <ele>211.1</ele>
        <time>2020-07-04T13:31:02.518Z</time>
      </trkpt>
      <trkpt lat="45.87248" lon="4.64457">
        <ele>211.2</ele>
        <time>2020-07-04T13:31:05.707Z</time>
      </trkpt>
      <trkpt lat="45.87262" lon="4.64445">
        <ele>211.3</ele>
        <time>2020-07-04T13:31:08.906Z</time>
      </trkpt>
      <trkpt lat="45.87282" lon="4.64428">
        <ele>211.1</ele>
        <time>2020-07-04T13:31:12.119Z</time>
      </trkpt>
      <trkpt lat="45.87305" lon="4.64408">
        <ele>210.9</ele>
        <time>2020-07-04T13:31:15.348Z</time>
      </trkpt>
      <trkpt lat="45.87333" lon="4.64386">
        <ele>210.6</ele>
        <time>2020-07-04T13:31:18.597Z</time>
      </trkpt>
      <trkpt lat="45.87337" lon="4.64383">
        <ele>210.7</ele>
        <time>2020-07-04T13:31:21.848Z</time>
      </trkpt>
      <trkpt lat="45.87351" lon="4.64369">
        <ele>211.1</ele>
        <time>2020-07-04T13:31:25.109Z</time>
      </trkpt>
      <trkpt lat="45.87359" lon="4.64358">
        <ele>211</ele>
        <time>2020-07-04T13:31:28.377Z</time>
      </trkpt>
      <trkpt lat="45.87365" lon="4.64351">
        <ele>211</ele>
        <time>2020-07-04T13:31:31.650Z</time>
      </trkpt>
      <trkpt lat="45.87375" lon="4.64345">
        <ele>211.3</ele>
        <time>2020-07-04T13:31:34.929Z</time>
      </trkpt>
      <trkpt lat="45.87381" lon="4.64341">
        <ele>211.6</ele>
        <time>2020-07-04T13:31:38.213Z</time>
      </trkpt>
      <trkpt lat="45.87381" lon="4.64338">
        <ele>211.6</ele>
        <time>2020-07-04T13:31:41.498Z</time>
      </trkpt>
      <trkpt lat="45.87381" lon="4.64328">
        <ele>211.6</ele>
        <time>2020-07-04T13:31:44.787Z</time>
      </trkpt>
      <trkpt lat="45.8738" lon="4.64325">
        <ele>211.5</ele>
        <time>2020-07-04T13:31:48.077Z</time>
      </trkpt>
      <trkpt lat="45.87378" lon="4.64329">
        <ele>211.4</ele>
        <time>2020-07-04T13:31:51.369Z</time>
      </trkpt>
      <trkpt lat="45.87382" lon="4.64337">
        <ele>211.6</ele>
        <time>2020-07-04T13:31:54.666Z</time>
      </trkpt>
      <trkpt lat="45.8739" lon="4.6434">
        <ele>212</ele>
        <time>2020-07-04T13:31:57.967Z</time>
      </trkpt>
      <trkpt lat="45.87396" lon="4.64341">
        <ele>212</ele>
        <time>2020-07-04T13:32:01.272Z</time>
      </trkpt>
      <trkpt lat="45.87411" lon="4.64338">
        <ele>212</ele>
        <time>2020-07-04T13:32:04.586Z</time>
      </trkpt>
      <trkpt lat="45.8742" lon="4.64338">
        <ele>212</ele>
        <time>2020-07-04T13:32:07.906Z</time>
      </trkpt>
      <trkpt lat="45.8743" lon="4.64338">
        <ele>212</ele>
        <time>2020-07-04T13:32:11.232Z</time>
      </trkpt>
      <trkpt lat="45.8744" lon="4.64338">
        <ele>212</ele>
        <time>2020-07-04T13:32:14.564Z</time>
      </trkpt>
      <trkpt lat="45.87448" lon="4.64339">
        <ele>211.9</ele>
        <time>2020-07-04T13:32:17.900Z</time>
      </trkpt>
      <trkpt lat="45.87467" lon="4.64345">
        <ele>211.8</ele>
        <time>2020-07-04T13:32:21.248Z</time>
      </trkpt>
      <trkpt lat="45.87502" lon="4.64358">
        <ele>211.5</ele>
        <time>2020-07-04T13:32:24.618Z</time>
      </trkpt>
      <trkpt lat="45.87507" lon="4.6436">
        <ele>211.5</ele>
        <time>2020-07-04T13:32:27.991Z</time>
      </trkpt>
      <trkpt lat="45.87522" lon="4.64365">
        <ele>211.4</ele>
        <time>2020-07-04T13:32:31.373Z</time>
      </trkpt>
      <trkpt lat="45.87538" lon="4.64371">
        <ele>211.3</ele>
        <time>2020-07-04T13:32:34.765Z</time>
      </trkpt>
      <trkpt lat="45.87551" lon="4.64377">
        <ele>211.3</ele>
        <time>2020-07-04T13:32:38.166Z</time>
      </trkpt>
      <trkpt lat="45.87562" lon="4.64382">
        <ele>211.3</ele>
        <time>2020-07-04T13:32:41.573Z</time>
      </trkpt>
      <trkpt lat="45.87567" lon="4.64384">
        <ele>211.4</ele>
        <time>2020-07-04T13:32:44.984Z</time>
      </trkpt>
      <trkpt lat="45.87567" lon="4.64384">
        <ele>211.4</ele>
        <time>2020-07-04T13:32:48.395Z</time>
      </trkpt>
      <trkpt lat="45.87567" lon="4.64384">
        <ele>211.4</ele>
        <time>2020-07-04T13:32:51.806Z</time>
      </trkpt>
      <trkpt lat="45.87567" lon="4.64384">
        <ele>211.4</ele>
        <time>2020-07-04T13:32:55.217Z</time>
      </trkpt>
      <trkpt lat="45.8757" lon="4.64385">
        <ele>211.4</ele>
        <time>2020-07-04T13:32:58.630Z</time>
      </trkpt>
      <trkpt lat="45.87584" lon="4.64398">
        <ele>211.7</ele>
        <time>2020-07-04T13:33:02.053Z</time>
      </trkpt>
      <trkpt lat="45.87599" lon="4.64418">
        <ele>212.2</ele>
        <time>2020-07-04T13:33:05.488Z</time>
      </trkpt>
      <trkpt lat="45.87611" lon="4.64424">
        <ele>212.3</ele>
        <time>2020-07-04T13:33:08.931Z</time>
      </trkpt>
      <trkpt lat="45.87633" lon="4.64421">
        <ele>211.7</ele>
        <time>2020-07-04T13:33:12.387Z</time>
      </trkpt>
      <trkpt lat="45.87663" lon="4.64416">
        <ele>211.8</ele>
        <time>2020-07-04T13:33:15.861Z</time>
      </trkpt>
      <trkpt lat="45.87681" lon="4.6442">
        <ele>212.4</ele>
        <time>2020-07-04T13:33:19.346Z</time>
      </trkpt>
      <trkpt lat="45.87689" lon="4.64423">
        <ele>212.8</ele>
        <time>2020-07-04T13:33:22.836Z</time>
      </trkpt>
      <trkpt lat="45.87698" lon="4.64425">
        <ele>213.1</ele>
        <time>2020-07-04T13:33:26.332Z</time>
      </trkpt>
      <trkpt lat="45.87704" lon="4.64429">
        <ele>213.5</ele>
        <time>2020-07-04T13:33:29.832Z</time>
      </trkpt>
      <trkpt lat="45.87697" lon="4.64441">
        <ele>213.8</ele>
        <time>2020-07-04T13:33:33.338Z</time>
      </trkpt>
      <trkpt lat="45.87684" lon="4.6446">
        <ele>214.2</ele>
        <time>2020-07-04T13:33:36.855Z</time>
      </trkpt>
      <trkpt lat="45.87676" lon="4.6448">
        <ele>214.2</ele>
        <time>2020-07-04T13:33:40.382Z</time>
      </trkpt>
      <trkpt lat="45.87677" lon="4.64486">
        <ele>214.3</ele>
        <time>2020-07-04T13:33:43.911Z</time>
      </trkpt>
      <trkpt lat="45.87682" lon="4.64496">
        <ele>214.5</ele>
        <time>2020-07-04T13:33:47.446Z</time>
      </trkpt>
      <trkpt lat="45.87688" lon="4.64506">
        <ele>214.8</ele>
        <time>2020-07-04T13:33:50.986Z</time>
      </trkpt>
      <trkpt lat="45.87703" lon="4.64524">
        <ele>215.4</ele>
        <time>2020-07-04T13:33:54.538Z</time>
      </trkpt>
      <trkpt lat="45.87721" lon="4.64555">
        <ele>216.9</ele>
        <time>2020-07-04T13:33:58.107Z</time>
      </trkpt>
      <trkpt lat="45.87722" lon="4.6458">
        <ele>218.1</ele>
        <time>2020-07-04T13:34:01.686Z</time>
      </trkpt>
      <trkpt lat="45.87724" lon="4.64605">
        <ele>219.6</ele>
        <time>2020-07-04T13:34:05.276Z</time>
      </trkpt>
      <trkpt lat="45.8773" lon="4.64631">
        <ele>219.9</ele>
        <time>2020-07-04T13:34:08.878Z</time>
      </trkpt>
      <trkpt lat="45.87727" lon="4.64659">
        <ele>219.1</ele>
        <time>2020-07-04T13:34:12.492Z</time>
      </trkpt>
      <trkpt lat="45.87725" lon="4.64701">
        <ele>218.1</ele>
        <time>2020-07-04T13:34:16.124Z</time>
      </trkpt>
      <trkpt lat="45.87727" lon="4.64728">
        <ele>216.6</ele>
        <time>2020-07-04T13:34:19.767Z</time>
      </trkpt>
      <trkpt lat="45.8773" lon="4.64744">
        <ele>215.7</ele>
        <time>2020-07-04T13:34:23.417Z</time>
      </trkpt>
      <trkpt lat="45.87737" lon="4.64777">
        <ele>213.9</ele>
        <time>2020-07-04T13:34:27.081Z</time>
      </trkpt>
      <trkpt lat="45.87742" lon="4.64788">
        <ele>213.5</ele>
        <time>2020-07-04T13:34:30.751Z</time>
      </trkpt>
      <trkpt lat="45.87752" lon="4.64806">
        <ele>213.9</ele>
        <time>2020-07-04T13:34:34.431Z</time>
      </trkpt>
      <trkpt lat="45.87763" lon="4.64825">
        <ele>214.4</ele>
        <time>2020-07-04T13:34:38.121Z</time>
      </trkpt>
      <trkpt lat="45.87768" lon="4.64833">
        <ele>214.6</ele>
        <time>2020-07-04T13:34:41.816Z</time>
      </trkpt>
      <trkpt lat="45.87778" lon="4.64848">
        <ele>215.1</ele>
        <time>2020-07-04T13:34:45.519Z</time>
      </trkpt>
      <trkpt lat="45.87779" lon="4.64851">
        <ele>215.1</ele>
        <time>2020-07-04T13:34:49.224Z</time>
      </trkpt>
      <trkpt lat="45.87787" lon="4.64864">
        <ele>215.5</ele>
        <time>2020-07-04T13:34:52.936Z</time>
      </trkpt>
      <trkpt lat="45.87791" lon="4.64871">
        <ele>215.8</ele>
        <time>2020-07-04T13:34:56.652Z</time>
      </trkpt>
      <trkpt lat="45.87796" lon="4.64882">
        <ele>216.7</ele>
        <time>2020-07-04T13:35:00.373Z</time>
      </trkpt>
      <trkpt lat="45.878" lon="4.64891">
        <ele>217.4</ele>
        <time>2020-07-04T13:35:04.099Z</time>
      </trkpt>
      <trkpt lat="45.87803" lon="4.64896">
        <ele>217.9</ele>
        <time>2020-07-04T13:35:07.827Z</time>
      </trkpt>
      <trkpt lat="45.8781" lon="4.64911">
        <ele>219.2</ele>
        <time>2020-07-04T13:35:11.563Z</time>
      </trkpt>
      <trkpt lat="45.87811" lon="4.64914">
        <ele>219.5</ele>
        <time>2020-07-04T13:35:15.300Z</time>
      </trkpt>
      <trkpt lat="45.87817" lon="4.64927">
        <ele>220.8</ele>
        <time>2020-07-04T13:35:19.044Z</time>
      </trkpt>
      <trkpt lat="45.87818" lon="4.64929">
        <ele>221</ele>
        <time>2020-07-04T13:35:22.789Z</time>
      </trkpt>
      <trkpt lat="45.87826" lon="4.64942">
        <ele>222.4</ele>
        <time>2020-07-04T13:35:26.542Z</time>
      </trkpt>
      <trkpt lat="45.87826" lon="4.64945">
        <ele>222.6</ele>
        <time>2020-07-04T13:35:30.296Z</time>
      </trkpt>
      <trkpt lat="45.87829" lon="4.64959">
        <ele>224.1</ele>
        <time>2020-07-04T13:35:34.056Z</time>
      </trkpt>
      <trkpt lat="45.8783" lon="4.64962">
        <ele>224.6</ele>
        <time>2020-07-04T13:35:37.817Z</time>
      </trkpt>
      <trkpt lat="45.87837" lon="4.64975">
        <ele>226.5</ele>
        <time>2020-07-04T13:35:41.585Z</time>
      </trkpt>
      <trkpt lat="45.87838" lon="4.64977">
        <ele>226.8</ele>
        <time>2020-07-04T13:35:45.354Z</time>
      </trkpt>
      <trkpt lat="45.87841" lon="4.64987">
        <ele>228.2</ele>
        <time>2020-07-04T13:35:49.128Z</time>
      </trkpt>
      <trkpt lat="45.87844" lon="4.64994">
        <ele>229.1</ele>
        <time>2020-07-04T13:35:52.905Z</time>
      </trkpt>
      <trkpt lat="45.87846" lon="4.64998">
        <ele>229.7</ele>
        <time>2020-07-04T13:35:56.684Z</time>
      </trkpt>
      <trkpt lat="45.87848" lon="4.65005">
        <ele>230.5</ele>
        <time>2020-07-04T13:36:00.466Z</time>
      </trkpt>
      <trkpt lat="45.8785" lon="4.65009">
        <ele>231.1</ele>
        <time>2020-07-04T13:36:04.251Z</time>
      </trkpt>
      <trkpt lat="45.87851" lon="4.65011">
        <ele>231.4</ele>
        <time>2020-07-04T13:36:08.037Z</time>
      </trkpt>
      <trkpt lat="45.87856" lon="4.65019">
        <ele>232.6</ele>
        <time>2020-07-04T13:36:11.827Z</time>
      </trkpt>
      <trkpt lat="45.87858" lon="4.65024">
        <ele>233.2</ele>
        <time>2020-07-04T13:36:15.619Z</time>
      </trkpt>
      <trkpt lat="45.87861" lon="4.6503">
        <ele>234</ele>
        <time>2020-07-04T13:36:19.415Z</time>
      </trkpt>
      <trkpt lat="45.87866" lon="4.65038">
        <ele>235.2</ele>
        <time>2020-07-04T13:36:23.215Z</time>
      </trkpt>
      <trkpt lat="45.87868" lon="4.6504">
        <ele>235.6</ele>
        <time>2020-07-04T13:36:27.016Z</time>
      </trkpt>
      <trkpt lat="45.87871" lon="4.65046">
        <ele>236.4</ele>
        <time>2020-07-04T13:36:30.821Z</time>
      </trkpt>
      <trkpt lat="45.87875" lon="4.65052">
        <ele>237.3</ele>
        <time>2020-07-04T13:36:34.629Z</time>
      </trkpt>
      <trkpt lat="45.87879" lon="4.65057">
        <ele>238.1</ele>
        <time>2020-07-04T13:36:38.440Z</time>
      </trkpt>
      <trkpt lat="45.8788" lon="4.65059">
        <ele>238.4</ele>
        <time>2020-07-04T13:36:42.252Z</time>
      </trkpt>
      <trkpt lat="45.87886" lon="4.65067">
        <ele>239.7</ele>
        <time>2020-07-04T13:36:46.069Z</time>
      </trkpt>
      <trkpt lat="45.8789" lon="4.65076">
        <ele>240.9</ele>
        <time>2020-07-04T13:36:49.891Z</time>
      </trkpt>
      <trkpt lat="45.87891" lon="4.65078">
        <ele>241.3</ele>
        <time>2020-07-04T13:36:53.714Z</time>
      </trkpt>
      <trkpt lat="45.87895" lon="4.65084">
        <ele>242.5</ele>
        <time>2020-07-04T13:36:57.540Z</time>
      </trkpt>
      <trkpt lat="45.87898" lon="4.65097">
        <ele>244.2</ele>
        <time>2020-07-04T13:37:01.372Z</time>
      </trkpt>
      <trkpt lat="45.87899" lon="4.65107">
        <ele>245.3</ele>
        <time>2020-07-04T13:37:05.208Z</time>
      </trkpt>
      <trkpt lat="45.87897" lon="4.65113">
        <ele>245.5</ele>
        <time>2020-07-04T13:37:09.047Z</time>
      </trkpt>
      <trkpt lat="45.87895" lon="4.65115">
        <ele>245.4</ele>
        <time>2020-07-04T13:37:12.887Z</time>
      </trkpt>
      <trkpt lat="45.87893" lon="4.65117">
        <ele>245.3</ele>
        <time>2020-07-04T13:37:16.728Z</time>
      </trkpt>
      <trkpt lat="45.87894" lon="4.65117">
        <ele>245.5</ele>
        <time>2020-07-04T13:37:20.570Z</time>
      </trkpt>
      <trkpt lat="45.87893" lon="4.65118">
        <ele>245.4</ele>
        <time>2020-07-04T13:37:24.412Z</time>
      </trkpt>
      <trkpt lat="45.87885" lon="4.65128">
        <ele>245.8</ele>
        <time>2020-07-04T13:37:28.261Z</time>
      </trkpt>
      <trkpt lat="45.87876" lon="4.65136">
        <ele>246.2</ele>
        <time>2020-07-04T13:37:32.116Z</time>
      </trkpt>
      <trkpt lat="45.8787" lon="4.6514">
        <ele>246.3</ele>
        <time>2020-07-04T13:37:35.975Z</time>
      </trkpt>
      <trkpt lat="45.87864" lon="4.65144">
        <ele>246.4</ele>
        <time>2020-07-04T13:37:39.838Z</time>
      </trkpt>
      <trkpt lat="45.87856" lon="4.65149">
        <ele>246.6</ele>
        <time>2020-07-04T13:37:43.706Z</time>
      </trkpt>
      <trkpt lat="45.87849" lon="4.65152">
        <ele>246.5</ele>
        <time>2020-07-04T13:37:47.578Z</time>
      </trkpt>
      <trkpt lat="45.87843" lon="4.65155">
        <ele>246.5</ele>
        <time>2020-07-04T13:37:51.454Z</time>
      </trkpt>
      <trkpt lat="45.8783" lon="4.65161">
        <ele>247.5</ele>
        <time>2020-07-04T13:37:55.339Z</time>
      </trkpt>
      <trkpt lat="45.87824" lon="4.65164">
        <ele>248.1</ele>
        <time>2020-07-04T13:37:59.228Z</time>
      </trkpt>
      <trkpt lat="45.87815" lon="4.65166">
        <ele>248.4</ele>
        <time>2020-07-04T13:38:03.122Z</time>
      </trkpt>
      <trkpt lat="45.87807" lon="4.65168">
        <ele>248.8</ele>
        <time>2020-07-04T13:38:07.021Z</time>
      </trkpt>
      <trkpt lat="45.878" lon="4.65168">
        <ele>249</ele>
        <time>2020-07-04T13:38:10.924Z</time>
      </trkpt>
      <trkpt lat="45.87787" lon="4.65168">
        <ele>249.5</ele>
        <time>2020-07-04T13:38:14.835Z</time>
      </trkpt>
      <trkpt lat="45.87779" lon="4.65167">
        <ele>249.6</ele>
        <time>2020-07-04T13:38:18.751Z</time>
      </trkpt>
      <trkpt lat="45.87773" lon="4.65166">
        <ele>249.6</ele>
        <time>2020-07-04T13:38:22.670Z</time>
      </trkpt>
      <trkpt lat="45.87767" lon="4.65166">
        <ele>249.9</ele>
        <time>2020-07-04T13:38:26.593Z</time>
      </trkpt>
      <trkpt lat="45.87759" lon="4.65167">
        <ele>250.5</ele>
        <time>2020-07-04T13:38:30.521Z</time>
      </trkpt>
      <trkpt lat="45.87757" lon="4.65166">
        <ele>250.4</ele>
        <time>2020-07-04T13:38:34.450Z</time>
      </trkpt>
      <trkpt lat="45.87755" lon="4.65166">
        <ele>250.5</ele>
        <time>2020-07-04T13:38:38.381Z</time>
      </trkpt>
      <trkpt lat="45.87746" lon="4.65166">
        <ele>250.9</ele>
        <time>2020-07-04T13:38:42.317Z</time>
      </trkpt>
      <trkpt lat="45.8774" lon="4.65166">
        <ele>251.2</ele>
        <time>2020-07-04T13:38:46.257Z</time>
      </trkpt>
      <trkpt lat="45.87738" lon="4.65165">
        <ele>251.1</ele>
        <time>2020-07-04T13:38:50.198Z</time>
      </trkpt>
      <trkpt lat="45.8773" lon="4.65165">
        <ele>251.5</ele>
        <time>2020-07-04T13:38:54.143Z</time>
      </trkpt>
      <trkpt lat="45.87728" lon="4.65165">
        <ele>251.6</ele>
        <time>2020-07-04T13:38:58.090Z</time>
      </trkpt>
      <trkpt lat="45.8772" lon="4.65164">
        <ele>252.1</ele>
        <time>2020-07-04T13:39:02.042Z</time>
      </trkpt>
      <trkpt lat="45.87713" lon="4.65163">
        <ele>253</ele>
        <time>2020-07-04T13:39:05.998Z</time>
      </trkpt>
      <trkpt lat="45.87711" lon="4.65162">
        <ele>253.1</ele>
        <time>2020-07-04T13:39:09.955Z</time>
      </trkpt>
      <trkpt lat="45.877" lon="4.65161">
        <ele>254.6</ele>
        <time>2020-07-04T13:39:13.919Z</time>
      </trkpt>
      <trkpt lat="45.8769" lon="4.6516">
        <ele>256</ele>
        <time>2020-07-04T13:39:17.889Z</time>
      </trkpt>
      <trkpt lat="45.87683" lon="4.65162">
        <ele>257.5</ele>
        <time>2020-07-04T13:39:21.863Z</time>
      </trkpt>
      <trkpt lat="45.87674" lon="4.65163">
        <ele>258.6</ele>
        <time>2020-07-04T13:39:25.842Z</time>
      </trkpt>
      <trkpt lat="45.87665" lon="4.65165">
        <ele>259.9</ele>
        <time>2020-07-04T13:39:29.827Z</time>
      </trkpt>
      <trkpt lat="45.87655" lon="4.6517">
        <ele>261.7</ele>
        <time>2020-07-04T13:39:33.818Z</time>
      </trkpt>
      <trkpt lat="45.87653" lon="4.6517">
        <ele>261.9</ele>
        <time>2020-07-04T13:39:37.811Z</time>
      </trkpt>
      <trkpt lat="45.8764" lon="4.65178">
        <ele>264.4</ele>
        <time>2020-07-04T13:39:41.812Z</time>
      </trkpt>
      <trkpt lat="45.87633" lon="4.65183">
        <ele>265.7</ele>
        <time>2020-07-04T13:39:45.818Z</time>
      </trkpt>
      <trkpt lat="45.87622" lon="4.65191">
        <ele>267.5</ele>
        <time>2020-07-04T13:39:49.831Z</time>
      </trkpt>
      <trkpt lat="45.87618" lon="4.65195">
        <ele>268.1</ele>
        <time>2020-07-04T13:39:53.847Z</time>
      </trkpt>
      <trkpt lat="45.87613" lon="4.65199">
        <ele>268.6</ele>
        <time>2020-07-04T13:39:57.866Z</time>
      </trkpt>
      <trkpt lat="45.87602" lon="4.65208">
        <ele>270.1</ele>
        <time>2020-07-04T13:40:01.893Z</time>
      </trkpt>
      <trkpt lat="45.876" lon="4.6521">
        <ele>270.4</ele>
        <time>2020-07-04T13:40:05.922Z</time>
      </trkpt>
      <trkpt lat="45.87592" lon="4.65218">
        <ele>271.8</ele>
        <time>2020-07-04T13:40:09.956Z</time>
      </trkpt>
      <trkpt lat="45.87584" lon="4.65225">
        <ele>273</ele>
        <time>2020-07-04T13:40:13.996Z</time>
      </trkpt>
      <trkpt lat="45.87576" lon="4.65237">
        <ele>274.7</ele>
        <time>2020-07-04T13:40:18.043Z</time>
      </trkpt>
      <trkpt lat="45.87574" lon="4.65239">
        <ele>275</ele>
        <time>2020-07-04T13:40:22.092Z</time>
      </trkpt>
      <trkpt lat="45.87563" lon="4.65252">
        <ele>276.8</ele>
        <time>2020-07-04T13:40:26.149Z</time>
      </trkpt>
      <trkpt lat="45.87558" lon="4.65258">
        <ele>277.6</ele>
        <time>2020-07-04T13:40:30.210Z</time>
      </trkpt>
      <trkpt lat="45.87552" lon="4.65265">
        <ele>278.6</ele>
        <time>2020-07-04T13:40:34.276Z</time>
      </trkpt>
      <trkpt lat="45.87543" lon="4.65276">
        <ele>280</ele>
        <time>2020-07-04T13:40:38.349Z</time>
      </trkpt>
      <trkpt lat="45.87542" lon="4.65278">
        <ele>280.1</ele>
        <time>2020-07-04T13:40:42.423Z</time>
      </trkpt>
      <trkpt lat="45.87536" lon="4.65288">
        <ele>280.7</ele>
        <time>2020-07-04T13:40:46.503Z</time>
      </trkpt>
      <trkpt lat="45.87533" lon="4.65293">
        <ele>281</ele>
        <time>2020-07-04T13:40:50.585Z</time>
      </trkpt>
      <trkpt lat="45.87531" lon="4.65297">
        <ele>281.3</ele>
        <time>2020-07-04T13:40:54.669Z</time>
      </trkpt>
      <trkpt lat="45.87525" lon="4.6531">
        <ele>282.3</ele>
        <time>2020-07-04T13:40:58.760Z</time>
      </trkpt>
      <trkpt lat="45.87524" lon="4.65313">
        <ele>282.5</ele>
        <time>2020-07-04T13:41:02.852Z</time>
      </trkpt>
      <trkpt lat="45.8752" lon="4.65321">
        <ele>283.1</ele>
        <time>2020-07-04T13:41:06.948Z</time>
      </trkpt>
      <trkpt lat="45.87516" lon="4.6533">
        <ele>283.8</ele>
        <time>2020-07-04T13:41:11.049Z</time>
      </trkpt>
      <trkpt lat="45.87516" lon="4.65333">
        <ele>284</ele>
        <time>2020-07-04T13:41:15.151Z</time>
      </trkpt>
      <trkpt lat="45.87514" lon="4.65341">
        <ele>284.8</ele>
        <time>2020-07-04T13:41:19.256Z</time>
      </trkpt>
      <trkpt lat="45.87514" lon="4.65346">
        <ele>285.3</ele>
        <time>2020-07-04T13:41:23.364Z</time>
      </trkpt>
      <trkpt lat="45.87513" lon="4.65351">
        <ele>285.7</ele>
        <time>2020-07-04T13:41:27.474Z</time>
      </trkpt>
      <trkpt lat="45.87513" lon="4.65351">
        <ele>285.7</ele>
        <time>2020-07-04T13:41:31.584Z</time>
      </trkpt>
      <trkpt lat="45.87513" lon="4.65351">
        <ele>285.7</ele>
        <time>2020-07-04T13:41:35.694Z</time>
      </trkpt>
      <trkpt lat="45.87513" lon="4.65351">
        <ele>285.7</ele>
        <time>2020-07-04T13:41:39.804Z</time>
      </trkpt>
      <trkpt lat="45.87513" lon="4.65351">
        <ele>285.7</ele>
        <time>2020-07-04T13:41:43.914Z</time>
      </trkpt>
      <trkpt lat="45.87513" lon="4.65353">
        <ele>285.9</ele>
        <time>2020-07-04T13:41:48.025Z</time>
      </trkpt>
      <trkpt lat="45.87513" lon="4.65353">
        <ele>285.9</ele>
        <time>2020-07-04T13:41:52.136Z</time>
      </trkpt>
      <trkpt lat="45.87513" lon="4.65353">
        <ele>285.9</ele>
        <time>2020-07-04T13:41:56.247Z</time>
      </trkpt>
      <trkpt lat="45.87513" lon="4.65353">
        <ele>285.9</ele>
        <time>2020-07-04T13:42:00.358Z</time>
      </trkpt>
      <trkpt lat="45.87513" lon="4.65353">
        <ele>285.9</ele>
        <time>2020-07-04T13:42:04.469Z</time>
      </trkpt>
      <trkpt lat="45.87513" lon="4.65353">
        <ele>285.9</ele>
        <time>2020-07-04T13:42:08.580Z</time>
      </trkpt>
      <trkpt lat="45.87512" lon="4.65355">
        <ele>286.1</ele>
        <time>2020-07-04T13:42:12.692Z</time>
      </trkpt>
      <trkpt lat="45.87511" lon="4.65355">
        <ele>286.1</ele>
        <time>2020-07-04T13:42:16.805Z</time>
      </trkpt>
      <trkpt lat="45.87506" lon="4.6536">
        <ele>286.5</ele>
        <time>2020-07-04T13:42:20.921Z</time>
      </trkpt>
      <trkpt lat="45.87503" lon="4.65363">
        <ele>286.8</ele>
        <time>2020-07-04T13:42:25.039Z</time>
      </trkpt>
      <trkpt lat="45.87497" lon="4.65372">
        <ele>287.4</ele>
        <time>2020-07-04T13:42:29.163Z</time>
      </trkpt>
      <trkpt lat="45.87496" lon="4.65373">
        <ele>287.4</ele>
        <time>2020-07-04T13:42:33.287Z</time>
      </trkpt>
      <trkpt lat="45.87492" lon="4.6538">
        <ele>287.5</ele>
        <time>2020-07-04T13:42:37.415Z</time>
      </trkpt>
      <trkpt lat="45.87476" lon="4.65393">
        <ele>286.9</ele>
        <time>2020-07-04T13:42:41.554Z</time>
      </trkpt>
      <trkpt lat="45.87459" lon="4.65405">
        <ele>284.6</ele>
        <time>2020-07-04T13:42:45.705Z</time>
      </trkpt>
      <trkpt lat="45.87455" lon="4.65406">
        <ele>284</ele>
        <time>2020-07-04T13:42:49.858Z</time>
      </trkpt>
      <trkpt lat="45.87448" lon="4.65407">
        <ele>283</ele>
        <time>2020-07-04T13:42:54.015Z</time>
      </trkpt>
      <trkpt lat="45.87435" lon="4.65408">
        <ele>281.1</ele>
        <time>2020-07-04T13:42:58.180Z</time>
      </trkpt>
      <trkpt lat="45.87423" lon="4.65413">
        <ele>280.2</ele>
        <time>2020-07-04T13:43:02.353Z</time>
      </trkpt>
      <trkpt lat="45.87416" lon="4.65418">
        <ele>280.1</ele>
        <time>2020-07-04T13:43:06.531Z</time>
      </trkpt>
      <trkpt lat="45.8741" lon="4.65424">
        <ele>280.2</ele>
        <time>2020-07-04T13:43:10.713Z</time>
      </trkpt>
      <trkpt lat="45.87398" lon="4.65435">
        <ele>280.2</ele>
        <time>2020-07-04T13:43:14.904Z</time>
      </trkpt>
      <trkpt lat="45.8739" lon="4.65444">
        <ele>280.4</ele>
        <time>2020-07-04T13:43:19.101Z</time>
      </trkpt>
      <trkpt lat="45.87384" lon="4.6545">
        <ele>281.1</ele>
        <time>2020-07-04T13:43:23.302Z</time>
      </trkpt>
      <trkpt lat="45.8738" lon="4.65454">
        <ele>281.5</ele>
        <time>2020-07-04T13:43:27.506Z</time>
      </trkpt>
      <trkpt lat="45.87364" lon="4.65469">
        <ele>282.4</ele>
        <time>2020-07-04T13:43:31.722Z</time>
      </trkpt>
      <trkpt lat="45.87356" lon="4.6547">
        <ele>282.8</ele>
        <time>2020-07-04T13:43:35.942Z</time>
      </trkpt>
      <trkpt lat="45.87347" lon="4.65467">
        <ele>283.2</ele>
        <time>2020-07-04T13:43:40.168Z</time>
      </trkpt>
      <trkpt lat="45.87341" lon="4.65465">
        <ele>283.5</ele>
        <time>2020-07-04T13:43:44.398Z</time>
      </trkpt>
      <trkpt lat="45.87332" lon="4.65461">
        <ele>283.9</ele>
        <time>2020-07-04T13:43:48.634Z</time>
      </trkpt>
      <trkpt lat="45.87329" lon="4.6546">
        <ele>284</ele>
        <time>2020-07-04T13:43:52.871Z</time>
      </trkpt>
      <trkpt lat="45.87317" lon="4.65454">
        <ele>284.5</ele>
        <time>2020-07-04T13:43:57.116Z</time>
      </trkpt>
      <trkpt lat="45.87312" lon="4.65449">
        <ele>284.5</ele>
        <time>2020-07-04T13:44:01.364Z</time>
      </trkpt>
      <trkpt lat="45.87297" lon="4.65444">
        <ele>284.3</ele>
        <time>2020-07-04T13:44:05.622Z</time>
      </trkpt>
      <trkpt lat="45.87291" lon="4.65444">
        <ele>284.1</ele>
        <time>2020-07-04T13:44:09.883Z</time>
      </trkpt>
      <trkpt lat="45.87277" lon="4.65441">
        <ele>283.6</ele>
        <time>2020-07-04T13:44:14.153Z</time>
      </trkpt>
      <trkpt lat="45.87256" lon="4.6544">
        <ele>283</ele>
        <time>2020-07-04T13:44:18.435Z</time>
      </trkpt>
      <trkpt lat="45.87233" lon="4.65442">
        <ele>282.6</ele>
        <time>2020-07-04T13:44:22.731Z</time>
      </trkpt>
      <trkpt lat="45.87216" lon="4.6545">
        <ele>281.5</ele>
        <time>2020-07-04T13:44:27.039Z</time>
      </trkpt>
      <trkpt lat="45.87203" lon="4.65466">
        <ele>280.6</ele>
        <time>2020-07-04T13:44:31.357Z</time>
      </trkpt>
      <trkpt lat="45.87194" lon="4.65489">
        <ele>280.8</ele>
        <time>2020-07-04T13:44:35.686Z</time>
      </trkpt>
      <trkpt lat="45.87194" lon="4.65505">
        <ele>281.9</ele>
        <time>2020-07-04T13:44:40.021Z</time>
      </trkpt>
      <trkpt lat="45.87196" lon="4.65527">
        <ele>284.9</ele>
        <time>2020-07-04T13:44:44.366Z</time>
      </trkpt>
      <trkpt lat="45.87197" lon="4.65534">
        <ele>285.9</ele>
        <time>2020-07-04T13:44:48.714Z</time>
      </trkpt>
      <trkpt lat="45.87198" lon="4.65541">
        <ele>286.8</ele>
        <time>2020-07-04T13:44:53.065Z</time>
      </trkpt>
      <trkpt lat="45.87198" lon="4.65545">
        <ele>287.2</ele>
        <time>2020-07-04T13:44:57.418Z</time>
      </trkpt>
      <trkpt lat="45.87199" lon="4.65553">
        <ele>288.1</ele>
        <time>2020-07-04T13:45:01.774Z</time>
      </trkpt>
      <trkpt lat="45.872" lon="4.65555">
        <ele>288.4</ele>
        <time>2020-07-04T13:45:06.131Z</time>
      </trkpt>
      <trkpt lat="45.872" lon="4.65564">
        <ele>289.2</ele>
        <time>2020-07-04T13:45:10.492Z</time>
      </trkpt>
      <trkpt lat="45.87202" lon="4.65579">
        <ele>290.9</ele>
        <time>2020-07-04T13:45:14.859Z</time>
      </trkpt>
      <trkpt lat="45.87202" lon="4.65588">
        <ele>291.7</ele>
        <time>2020-07-04T13:45:19.230Z</time>
      </trkpt>
      <trkpt lat="45.87202" lon="4.65597">
        <ele>292.6</ele>
        <time>2020-07-04T13:45:23.605Z</time>
      </trkpt>
      <trkpt lat="45.87202" lon="4.65606">
        <ele>294</ele>
        <time>2020-07-04T13:45:27.984Z</time>
      </trkpt>
      <trkpt lat="45.87201" lon="4.65615">
        <ele>295.5</ele>
        <time>2020-07-04T13:45:32.366Z</time>
      </trkpt>
      <trkpt lat="45.87202" lon="4.65624">
        <ele>296.8</ele>
        <time>2020-07-04T13:45:36.752Z</time>
      </trkpt>
      <trkpt lat="45.87202" lon="4.65626">
        <ele>297.1</ele>
        <time>2020-07-04T13:45:41.139Z</time>
      </trkpt>
      <trkpt lat="45.87202" lon="4.65631">
        <ele>297.7</ele>
        <time>2020-07-04T13:45:45.528Z</time>
      </trkpt>
      <trkpt lat="45.87203" lon="4.6564">
        <ele>298.8</ele>
        <time>2020-07-04T13:45:49.921Z</time>
      </trkpt>
      <trkpt lat="45.87203" lon="4.65643">
        <ele>299.1</ele>
        <time>2020-07-04T13:45:54.315Z</time>
      </trkpt>
      <trkpt lat="45.87203" lon="4.65646">
        <ele>299.5</ele>
        <time>2020-07-04T13:45:58.710Z</time>
      </trkpt>
      <trkpt lat="45.87202" lon="4.65658">
        <ele>300.9</ele>
        <time>2020-07-04T13:46:03.110Z</time>
      </trkpt>
      <trkpt lat="45.87202" lon="4.65666">
        <ele>301.9</ele>
        <time>2020-07-04T13:46:07.514Z</time>
      </trkpt>
      <trkpt lat="45.87202" lon="4.65669">
        <ele>302.2</ele>
        <time>2020-07-04T13:46:11.919Z</time>
      </trkpt>
      <trkpt lat="45.87205" lon="4.65679">
        <ele>303.5</ele>
        <time>2020-07-04T13:46:16.329Z</time>
      </trkpt>
      <trkpt lat="45.87206" lon="4.65681">
        <ele>303.8</ele>
        <time>2020-07-04T13:46:20.740Z</time>
      </trkpt>
      <trkpt lat="45.87211" lon="4.65685">
        <ele>304.5</ele>
        <time>2020-07-04T13:46:25.154Z</time>
      </trkpt>
      <trkpt lat="45.87215" lon="4.65688">
        <ele>305</ele>
        <time>2020-07-04T13:46:29.571Z</time>
      </trkpt>
      <trkpt lat="45.87217" lon="4.65689">
        <ele>305.2</ele>
        <time>2020-07-04T13:46:33.989Z</time>
      </trkpt>
      <trkpt lat="45.87218" lon="4.6569">
        <ele>305.3</ele>
        <time>2020-07-04T13:46:38.408Z</time>
      </trkpt>
      <trkpt lat="45.87226" lon="4.65694">
        <ele>305.8</ele>
        <time>2020-07-04T13:46:42.832Z</time>
      </trkpt>
      <trkpt lat="45.87227" lon="4.65695">
        <ele>305.9</ele>
        <time>2020-07-04T13:46:47.257Z</time>
      </trkpt>
      <trkpt lat="45.87232" lon="4.65698">
        <ele>306</ele>
        <time>2020-07-04T13:46:51.685Z</time>
      </trkpt>
      <trkpt lat="45.87241" lon="4.65705">
        <ele>306.4</ele>
        <time>2020-07-04T13:46:56.119Z</time>
      </trkpt>
      <trkpt lat="45.87244" lon="4.65707">
        <ele>306.5</ele>
        <time>2020-07-04T13:47:00.555Z</time>
      </trkpt>
      <trkpt lat="45.87248" lon="4.65709">
        <ele>306.6</ele>
        <time>2020-07-04T13:47:04.994Z</time>
      </trkpt>
      <trkpt lat="45.87251" lon="4.65711">
        <ele>306.7</ele>
        <time>2020-07-04T13:47:09.435Z</time>
      </trkpt>
      <trkpt lat="45.87259" lon="4.6572">
        <ele>307.4</ele>
        <time>2020-07-04T13:47:13.882Z</time>
      </trkpt>
      <trkpt lat="45.8726" lon="4.65722">
        <ele>307.5</ele>
        <time>2020-07-04T13:47:18.330Z</time>
      </trkpt>
      <trkpt lat="45.87259" lon="4.65733">
        <ele>308.9</ele>
        <time>2020-07-04T13:47:22.783Z</time>
      </trkpt>
      <trkpt lat="45.87257" lon="4.65738">
        <ele>309.6</ele>
        <time>2020-07-04T13:47:27.238Z</time>
      </trkpt>
      <trkpt lat="45.87257" lon="4.65741">
        <ele>310.1</ele>
        <time>2020-07-04T13:47:31.694Z</time>
      </trkpt>
      <trkpt lat="45.87258" lon="4.65742">
        <ele>310.1</ele>
        <time>2020-07-04T13:47:36.151Z</time>
      </trkpt>
      <trkpt lat="45.87259" lon="4.65743">
        <ele>310.2</ele>
        <time>2020-07-04T13:47:40.609Z</time>
      </trkpt>
      <trkpt lat="45.8726" lon="4.65743">
        <ele>310.1</ele>
        <time>2020-07-04T13:47:45.067Z</time>
      </trkpt>
      <trkpt lat="45.8726" lon="4.65743">
        <ele>310.1</ele>
        <time>2020-07-04T13:47:49.526Z</time>
      </trkpt>
      <trkpt lat="45.87265" lon="4.65749">
        <ele>310.6</ele>
        <time>2020-07-04T13:47:53.988Z</time>
      </trkpt>
      <trkpt lat="45.87266" lon="4.65751">
        <ele>310.9</ele>
        <time>2020-07-04T13:47:58.451Z</time>
      </trkpt>
      <trkpt lat="45.87266" lon="4.65758">
        <ele>311.9</ele>
        <time>2020-07-04T13:48:02.917Z</time>
      </trkpt>
      <trkpt lat="45.87267" lon="4.65769">
        <ele>313.4</ele>
        <time>2020-07-04T13:48:07.388Z</time>
      </trkpt>
      <trkpt lat="45.87267" lon="4.65774">
        <ele>314.1</ele>
        <time>2020-07-04T13:48:11.861Z</time>
      </trkpt>
      <trkpt lat="45.87267" lon="4.65785">
        <ele>315.7</ele>
        <time>2020-07-04T13:48:16.339Z</time>
      </trkpt>
      <trkpt lat="45.87267" lon="4.6579">
        <ele>316.1</ele>
        <time>2020-07-04T13:48:20.819Z</time>
      </trkpt>
      <trkpt lat="45.87269" lon="4.65803">
        <ele>316.9</ele>
        <time>2020-07-04T13:48:25.304Z</time>
      </trkpt>
      <trkpt lat="45.87275" lon="4.65812">
        <ele>317.1</ele>
        <time>2020-07-04T13:48:29.795Z</time>
      </trkpt>
      <trkpt lat="45.8728" lon="4.6582">
        <ele>317.3</ele>
        <time>2020-07-04T13:48:34.290Z</time>
      </trkpt>
      <trkpt lat="45.87283" lon="4.65824">
        <ele>317.4</ele>
        <time>2020-07-04T13:48:38.788Z</time>
      </trkpt>
      <trkpt lat="45.87288" lon="4.65829">
        <ele>317.4</ele>
        <time>2020-07-04T13:48:43.289Z</time>
      </trkpt>
      <trkpt lat="45.873" lon="4.65835">
        <ele>317</ele>
        <time>2020-07-04T13:48:47.798Z</time>
      </trkpt>
      <trkpt lat="45.87318" lon="4.65844">
        <ele>316.5</ele>
        <time>2020-07-04T13:48:52.318Z</time>
      </trkpt>
      <trkpt lat="45.87332" lon="4.65859">
        <ele>316.7</ele>
        <time>2020-07-04T13:48:56.849Z</time>
      </trkpt>
      <trkpt lat="45.87341" lon="4.65873">
        <ele>317</ele>
        <time>2020-07-04T13:49:01.388Z</time>
      </trkpt>
      <trkpt lat="45.8735" lon="4.65899">
        <ele>316.7</ele>
        <time>2020-07-04T13:49:05.939Z</time>
      </trkpt>
      <trkpt lat="45.87354" lon="4.65911">
        <ele>316.6</ele>
        <time>2020-07-04T13:49:10.496Z</time>
      </trkpt>
      <trkpt lat="45.87359" lon="4.6593">
        <ele>316.4</ele>
        <time>2020-07-04T13:49:15.061Z</time>
      </trkpt>
      <trkpt lat="45.87367" lon="4.6596">
        <ele>316.2</ele>
        <time>2020-07-04T13:49:19.640Z</time>
      </trkpt>
      <trkpt lat="45.87376" lon="4.65993">
        <ele>317.4</ele>
        <time>2020-07-04T13:49:24.234Z</time>
      </trkpt>
      <trkpt lat="45.87382" lon="4.66018">
        <ele>318.4</ele>
        <time>2020-07-04T13:49:28.839Z</time>
      </trkpt>
      <trkpt lat="45.87392" lon="4.66043">
        <ele>319.8</ele>
        <time>2020-07-04T13:49:33.456Z</time>
      </trkpt>
      <trkpt lat="45.87394" lon="4.66046">
        <ele>320.2</ele>
        <time>2020-07-04T13:49:38.075Z</time>
      </trkpt>
      <trkpt lat="45.87406" lon="4.66067">
        <ele>322.8</ele>
        <time>2020-07-04T13:49:42.705Z</time>
      </trkpt>
      <trkpt lat="45.87409" lon="4.66073">
        <ele>323.5</ele>
        <time>2020-07-04T13:49:47.338Z</time>
      </trkpt>
      <trkpt lat="45.87418" lon="4.66086">
        <ele>325.2</ele>
        <time>2020-07-04T13:49:51.979Z</time>
      </trkpt>
      <trkpt lat="45.87422" lon="4.6609">
        <ele>325.9</ele>
        <time>2020-07-04T13:49:56.623Z</time>
      </trkpt>
      <trkpt lat="45.87428" lon="4.661">
        <ele>327.1</ele>
        <time>2020-07-04T13:50:01.273Z</time>
      </trkpt>
      <trkpt lat="45.87437" lon="4.66113">
        <ele>328.9</ele>
        <time>2020-07-04T13:50:05.930Z</time>
      </trkpt>
      <trkpt lat="45.8744" lon="4.66118">
        <ele>329.5</ele>
        <time>2020-07-04T13:50:10.590Z</time>
      </trkpt>
      <trkpt lat="45.87442" lon="4.6612">
        <ele>329.8</ele>
        <time>2020-07-04T13:50:15.251Z</time>
      </trkpt>
      <trkpt lat="45.87445" lon="4.66125">
        <ele>330.5</ele>
        <time>2020-07-04T13:50:19.915Z</time>
      </trkpt>
      <trkpt lat="45.87452" lon="4.66135">
        <ele>332</ele>
        <time>2020-07-04T13:50:24.585Z</time>
      </trkpt>
      <trkpt lat="45.87454" lon="4.66137">
        <ele>332.3</ele>
        <time>2020-07-04T13:50:29.256Z</time>
      </trkpt>
      <trkpt lat="45.87459" lon="4.66143">
        <ele>333.3</ele>
        <time>2020-07-04T13:50:33.931Z</time>
      </trkpt>
      <trkpt lat="45.87462" lon="4.66149">
        <ele>334.1</ele>
        <time>2020-07-04T13:50:38.610Z</time>
      </trkpt>
      <trkpt lat="45.87464" lon="4.6615">
        <ele>334.3</ele>
        <time>2020-07-04T13:50:43.290Z</time>
      </trkpt>
      <trkpt lat="45.87467" lon="4.66155">
        <ele>335</ele>
        <time>2020-07-04T13:50:47.973Z</time>
      </trkpt>
      <trkpt lat="45.8747" lon="4.66157">
        <ele>335.4</ele>
        <time>2020-07-04T13:50:52.657Z</time>
      </trkpt>
      <trkpt lat="45.87471" lon="4.66157">
        <ele>335.5</ele>
        <time>2020-07-04T13:50:57.342Z</time>
      </trkpt>
      <trkpt lat="45.87474" lon="4.66154">
        <ele>335.4</ele>
        <time>2020-07-04T13:51:02.029Z</time>
      </trkpt>
      <trkpt lat="45.87474" lon="4.66154">
        <ele>335.4</ele>
        <time>2020-07-04T13:51:06.716Z</time>
      </trkpt>
      <trkpt lat="45.87474" lon="4.66152">
        <ele>335.2</ele>
        <time>2020-07-04T13:51:11.404Z</time>
      </trkpt>
      <trkpt lat="45.87475" lon="4.66149">
        <ele>335</ele>
        <time>2020-07-04T13:51:16.094Z</time>
      </trkpt>
      <trkpt lat="45.87475" lon="4.66149">
        <ele>335</ele>
        <time>2020-07-04T13:51:20.784Z</time>
      </trkpt>
      <trkpt lat="45.87475" lon="4.66149">
        <ele>335</ele>
        <time>2020-07-04T13:51:25.474Z</time>
      </trkpt>
      <trkpt lat="45.87475" lon="4.66149">
        <ele>335</ele>
        <time>2020-07-04T13:51:30.164Z</time>
      </trkpt>
      <trkpt lat="45.87476" lon="4.66145">
        <ele>334.8</ele>
        <time>2020-07-04T13:51:34.855Z</time>
      </trkpt>
      <trkpt lat="45.87479" lon="4.66124">
        <ele>333</ele>
        <time>2020-07-04T13:51:39.555Z</time>
      </trkpt>
      <trkpt lat="45.87487" lon="4.66089">
        <ele>330.6</ele>
        <time>2020-07-04T13:51:44.271Z</time>
      </trkpt>
      <trkpt lat="45.87488" lon="4.66081">
        <ele>329.9</ele>
        <time>2020-07-04T13:51:48.990Z</time>
      </trkpt>
      <trkpt lat="45.87493" lon="4.6606">
        <ele>328.5</ele>
        <time>2020-07-04T13:51:53.719Z</time>
      </trkpt>
      <trkpt lat="45.87495" lon="4.66054">
        <ele>327.9</ele>
        <time>2020-07-04T13:51:58.451Z</time>
      </trkpt>
      <trkpt lat="45.875" lon="4.66042">
        <ele>326.5</ele>
        <time>2020-07-04T13:52:03.189Z</time>
      </trkpt>
      <trkpt lat="45.87505" lon="4.6603">
        <ele>325.5</ele>
        <time>2020-07-04T13:52:07.932Z</time>
      </trkpt>
      <trkpt lat="45.87511" lon="4.66013">
        <ele>324.6</ele>
        <time>2020-07-04T13:52:12.683Z</time>
      </trkpt>
      <trkpt lat="45.87515" lon="4.66004">
        <ele>324.2</ele>
        <time>2020-07-04T13:52:17.439Z</time>
      </trkpt>
      <trkpt lat="45.87519" lon="4.65999">
        <ele>324.1</ele>
        <time>2020-07-04T13:52:22.198Z</time>
      </trkpt>
      <trkpt lat="45.87524" lon="4.65998">
        <ele>324.1</ele>
        <time>2020-07-04T13:52:26.960Z</time>
      </trkpt>
      <trkpt lat="45.87529" lon="4.65998">
        <ele>324.2</ele>
        <time>2020-07-04T13:52:31.725Z</time>
      </trkpt>
      <trkpt lat="45.87542" lon="4.65999">
        <ele>324.7</ele>
        <time>2020-07-04T13:52:36.498Z</time>
      </trkpt>
      <trkpt lat="45.87555" lon="4.65999">
        <ele>325</ele>
        <time>2020-07-04T13:52:41.279Z</time>
      </trkpt>
      <trkpt lat="45.87566" lon="4.65997">
        <ele>325.3</ele>
        <time>2020-07-04T13:52:46.067Z</time>
      </trkpt>
      <trkpt lat="45.87577" lon="4.65996">
        <ele>325.7</ele>
        <time>2020-07-04T13:52:50.861Z</time>
      </trkpt>
      <trkpt lat="45.8758" lon="4.65996">
        <ele>325.8</ele>
        <time>2020-07-04T13:52:55.657Z</time>
      </trkpt>
      <trkpt lat="45.87587" lon="4.65996">
        <ele>326.2</ele>
        <time>2020-07-04T13:53:00.457Z</time>
      </trkpt>
      <trkpt lat="45.87601" lon="4.65996">
        <ele>326.8</ele>
        <time>2020-07-04T13:53:05.266Z</time>
      </trkpt>
      <trkpt lat="45.87607" lon="4.65996">
        <ele>327</ele>
        <time>2020-07-04T13:53:10.078Z</time>
      </trkpt>
      <trkpt lat="45.87619" lon="4.65997">
        <ele>327.6</ele>
        <time>2020-07-04T13:53:14.897Z</time>
      </trkpt>
      <trkpt lat="45.87631" lon="4.65995">
        <ele>327.8</ele>
        <time>2020-07-04T13:53:19.724Z</time>
      </trkpt>
      <trkpt lat="45.87642" lon="4.65996">
        <ele>328.2</ele>
        <time>2020-07-04T13:53:24.557Z</time>
      </trkpt>
      <trkpt lat="45.87648" lon="4.65997">
        <ele>328.4</ele>
        <time>2020-07-04T13:53:29.394Z</time>
      </trkpt>
      <trkpt lat="45.87657" lon="4.65996">
        <ele>328.4</ele>
        <time>2020-07-04T13:53:34.236Z</time>
      </trkpt>
      <trkpt lat="45.87671" lon="4.65998">
        <ele>328.8</ele>
        <time>2020-07-04T13:53:39.087Z</time>
      </trkpt>
      <trkpt lat="45.8768" lon="4.65997">
        <ele>328.8</ele>
        <time>2020-07-04T13:53:43.944Z</time>
      </trkpt>
      <trkpt lat="45.87684" lon="4.66001">
        <ele>329.3</ele>
        <time>2020-07-04T13:53:48.803Z</time>
      </trkpt>
      <trkpt lat="45.87686" lon="4.66003">
        <ele>329.6</ele>
        <time>2020-07-04T13:53:53.664Z</time>
      </trkpt>
      <trkpt lat="45.87689" lon="4.66005">
        <ele>329.9</ele>
        <time>2020-07-04T13:53:58.527Z</time>
      </trkpt>
      <trkpt lat="45.87693" lon="4.66005">
        <ele>330</ele>
        <time>2020-07-04T13:54:03.392Z</time>
      </trkpt>
      <trkpt lat="45.87699" lon="4.66004">
        <ele>330.5</ele>
        <time>2020-07-04T13:54:08.261Z</time>
      </trkpt>
      <trkpt lat="45.87707" lon="4.66004">
        <ele>331.3</ele>
        <time>2020-07-04T13:54:13.134Z</time>
      </trkpt>
      <trkpt lat="45.87722" lon="4.66009">
        <ele>332.9</ele>
        <time>2020-07-04T13:54:18.017Z</time>
      </trkpt>
      <trkpt lat="45.87735" lon="4.66015">
        <ele>333.7</ele>
        <time>2020-07-04T13:54:22.908Z</time>
      </trkpt>
      <trkpt lat="45.87737" lon="4.66006">
        <ele>333.4</ele>
        <time>2020-07-04T13:54:27.803Z</time>
      </trkpt>
      <trkpt lat="45.87738" lon="4.66003">
        <ele>333.4</ele>
        <time>2020-07-04T13:54:32.699Z</time>
      </trkpt>
      <trkpt lat="45.87739" lon="4.65983">
        <ele>332.7</ele>
        <time>2020-07-04T13:54:37.604Z</time>
      </trkpt>
      <trkpt lat="45.8774" lon="4.65961">
        <ele>332.2</ele>
        <time>2020-07-04T13:54:42.518Z</time>
      </trkpt>
      <trkpt lat="45.8774" lon="4.65951">
        <ele>332.4</ele>
        <time>2020-07-04T13:54:47.436Z</time>
      </trkpt>
      <trkpt lat="45.87741" lon="4.6594">
        <ele>334</ele>
        <time>2020-07-04T13:54:52.359Z</time>
      </trkpt>
      <trkpt lat="45.87741" lon="4.65912">
        <ele>337.7</ele>
        <time>2020-07-04T13:54:57.294Z</time>
      </trkpt>
      <trkpt lat="45.87742" lon="4.65895">
        <ele>340</ele>
        <time>2020-07-04T13:55:02.236Z</time>
      </trkpt>
      <trkpt lat="45.87741" lon="4.65868">
        <ele>343.3</ele>
        <time>2020-07-04T13:55:07.189Z</time>
      </trkpt>
      <trkpt lat="45.87742" lon="4.65848">
        <ele>346.5</ele>
        <time>2020-07-04T13:55:12.151Z</time>
      </trkpt>
      <trkpt lat="45.87741" lon="4.65844">
        <ele>347</ele>
        <time>2020-07-04T13:55:17.115Z</time>
      </trkpt>
      <trkpt lat="45.8774" lon="4.65832">
        <ele>348.8</ele>
        <time>2020-07-04T13:55:22.084Z</time>
      </trkpt>
      <trkpt lat="45.8774" lon="4.6583">
        <ele>349.2</ele>
        <time>2020-07-04T13:55:27.054Z</time>
      </trkpt>
      <trkpt lat="45.8774" lon="4.65828">
        <ele>349.5</ele>
        <time>2020-07-04T13:55:32.024Z</time>
      </trkpt>
      <trkpt lat="45.87743" lon="4.65823">
        <ele>350.4</ele>
        <time>2020-07-04T13:55:36.997Z</time>
      </trkpt>
      <trkpt lat="45.87747" lon="4.65818">
        <ele>351.4</ele>
        <time>2020-07-04T13:55:41.973Z</time>
      </trkpt>
      <trkpt lat="45.87749" lon="4.65817">
        <ele>351.7</ele>
        <time>2020-07-04T13:55:46.951Z</time>
      </trkpt>
      <trkpt lat="45.87755" lon="4.65814">
        <ele>352.5</ele>
        <time>2020-07-04T13:55:51.932Z</time>
      </trkpt>
      <trkpt lat="45.87757" lon="4.65814">
        <ele>352.6</ele>
        <time>2020-07-04T13:55:56.915Z</time>
      </trkpt>
      <trkpt lat="45.87762" lon="4.65812">
        <ele>353.1</ele>
        <time>2020-07-04T13:56:01.901Z</time>
      </trkpt>
      <trkpt lat="45.87763" lon="4.65811">
        <ele>353.3</ele>
        <time>2020-07-04T13:56:06.888Z</time>
      </trkpt>
      <trkpt lat="45.87772" lon="4.65811">
        <ele>353.7</ele>
        <time>2020-07-04T13:56:11.880Z</time>
      </trkpt>
      <trkpt lat="45.87775" lon="4.65809">
        <ele>354.2</ele>
        <time>2020-07-04T13:56:16.874Z</time>
      </trkpt>
      <trkpt lat="45.87776" lon="4.65804">
        <ele>354.9</ele>
        <time>2020-07-04T13:56:21.870Z</time>
      </trkpt>
      <trkpt lat="45.87774" lon="4.658">
        <ele>355.4</ele>
        <time>2020-07-04T13:56:26.868Z</time>
      </trkpt>
      <trkpt lat="45.87773" lon="4.65799">
        <ele>355.5</ele>
        <time>2020-07-04T13:56:31.867Z</time>
      </trkpt>
      <trkpt lat="45.87772" lon="4.65799">
        <ele>355.5</ele>
        <time>2020-07-04T13:56:36.866Z</time>
      </trkpt>
      <trkpt lat="45.87768" lon="4.65796">
        <ele>355.7</ele>
        <time>2020-07-04T13:56:41.868Z</time>
      </trkpt>
      <trkpt lat="45.87764" lon="4.65793">
        <ele>356</ele>
        <time>2020-07-04T13:56:46.873Z</time>
      </trkpt>
      <trkpt lat="45.87763" lon="4.65791">
        <ele>356.2</ele>
        <time>2020-07-04T13:56:51.879Z</time>
      </trkpt>
      <trkpt lat="45.87757" lon="4.65785">
        <ele>356.6</ele>
        <time>2020-07-04T13:56:56.889Z</time>
      </trkpt>
      <trkpt lat="45.87756" lon="4.65784">
        <ele>356.5</ele>
        <time>2020-07-04T13:57:01.900Z</time>
      </trkpt>
      <trkpt lat="45.87751" lon="4.65779">
        <ele>356</ele>
        <time>2020-07-04T13:57:06.915Z</time>
      </trkpt>
      <trkpt lat="45.8775" lon="4.65777">
        <ele>355.9</ele>
        <time>2020-07-04T13:57:11.930Z</time>
      </trkpt>
      <trkpt lat="45.87746" lon="4.65771">
        <ele>355.4</ele>
        <time>2020-07-04T13:57:16.949Z</time>
      </trkpt>
      <trkpt lat="45.87743" lon="4.65768">
        <ele>355.1</ele>
        <time>2020-07-04T13:57:21.970Z</time>
      </trkpt>
      <trkpt lat="45.87741" lon="4.65764">
        <ele>354.8</ele>
        <time>2020-07-04T13:57:26.993Z</time>
      </trkpt>
      <trkpt lat="45.87735" lon="4.65758">
        <ele>354.2</ele>
        <time>2020-07-04T13:57:32.021Z</time>
      </trkpt>
      <trkpt lat="45.87734" lon="4.65757">
        <ele>354.1</ele>
        <time>2020-07-04T13:57:37.049Z</time>
      </trkpt>
      <trkpt lat="45.87729" lon="4.65751">
        <ele>353.6</ele>
        <time>2020-07-04T13:57:42.082Z</time>
      </trkpt>
      <trkpt lat="45.87726" lon="4.65748">
        <ele>353.3</ele>
        <time>2020-07-04T13:57:47.117Z</time>
      </trkpt>
      <trkpt lat="45.87722" lon="4.6574">
        <ele>352.5</ele>
        <time>2020-07-04T13:57:52.156Z</time>
      </trkpt>
      <trkpt lat="45.87722" lon="4.65738">
        <ele>352.4</ele>
        <time>2020-07-04T13:57:57.196Z</time>
      </trkpt>
      <trkpt lat="45.87719" lon="4.65731">
        <ele>351.2</ele>
        <time>2020-07-04T13:58:02.239Z</time>
      </trkpt>
      <trkpt lat="45.8772" lon="4.65728">
        <ele>351.4</ele>
        <time>2020-07-04T13:58:07.283Z</time>
      </trkpt>
      <trkpt lat="45.87722" lon="4.65725">
        <ele>351.8</ele>
        <time>2020-07-04T13:58:12.329Z</time>
      </trkpt>
      <trkpt lat="45.87722" lon="4.65724">
        <ele>351.7</ele>
        <time>2020-07-04T13:58:17.376Z</time>
      </trkpt>
      <trkpt lat="45.87722" lon="4.6572">
        <ele>351.5</ele>
        <time>2020-07-04T13:58:22.424Z</time>
      </trkpt>
      <trkpt lat="45.87724" lon="4.65718">
        <ele>351.8</ele>
        <time>2020-07-04T13:58:27.474Z</time>
      </trkpt>
      <trkpt lat="45.87724" lon="4.65716">
        <ele>351.7</ele>
        <time>2020-07-04T13:58:32.524Z</time>
      </trkpt>
      <trkpt lat="45.87726" lon="4.65713">
        <ele>351.6</ele>
        <time>2020-07-04T13:58:37.576Z</time>
      </trkpt>
      <trkpt lat="45.8773" lon="4.65706">
        <ele>351.5</ele>
        <time>2020-07-04T13:58:42.632Z</time>
      </trkpt>
      <trkpt lat="45.87732" lon="4.65703">
        <ele>351.3</ele>
        <time>2020-07-04T13:58:47.689Z</time>
      </trkpt>
      <trkpt lat="45.87733" lon="4.65702">
        <ele>351.2</ele>
        <time>2020-07-04T13:58:52.747Z</time>
      </trkpt>
      <trkpt lat="45.87739" lon="4.65694">
        <ele>349.4</ele>
        <time>2020-07-04T13:58:57.810Z</time>
      </trkpt>
      <trkpt lat="45.87747" lon="4.65684">
        <ele>347.2</ele>
        <time>2020-07-04T13:59:02.880Z</time>
      </trkpt>
      <trkpt lat="45.87759" lon="4.65674">
        <ele>345.1</ele>
        <time>2020-07-04T13:59:07.958Z</time>
      </trkpt>
      <trkpt lat="45.87772" lon="4.65671">
        <ele>344.8</ele>
        <time>2020-07-04T13:59:13.044Z</time>
      </trkpt>
      <trkpt lat="45.8778" lon="4.65671">
        <ele>345.1</ele>
        <time>2020-07-04T13:59:18.135Z</time>
      </trkpt>
      <trkpt lat="45.87791" lon="4.65672">
        <ele>345.7</ele>
        <time>2020-07-04T13:59:23.232Z</time>
      </trkpt>
      <trkpt lat="45.87795" lon="4.65672">
        <ele>345.9</ele>
        <time>2020-07-04T13:59:28.332Z</time>
      </trkpt>
      <trkpt lat="45.87805" lon="4.65673">
        <ele>346.5</ele>
        <time>2020-07-04T13:59:33.438Z</time>
      </trkpt>
      <trkpt lat="45.87819" lon="4.65673">
        <ele>346.4</ele>
        <time>2020-07-04T13:59:38.552Z</time>
      </trkpt>
      <trkpt lat="45.87833" lon="4.65675">
        <ele>346.7</ele>
        <time>2020-07-04T13:59:43.675Z</time>
      </trkpt>
      <trkpt lat="45.87846" lon="4.65675">
        <ele>346.6</ele>
        <time>2020-07-04T13:59:48.805Z</time>
      </trkpt>
      <trkpt lat="45.87861" lon="4.65677">
        <ele>346.9</ele>
        <time>2020-07-04T13:59:53.945Z</time>
      </trkpt>
      <trkpt lat="45.87876" lon="4.65679">
        <ele>347.9</ele>
        <time>2020-07-04T13:59:59.094Z</time>
      </trkpt>
      <trkpt lat="45.87891" lon="4.65684">
        <ele>349.6</ele>
        <time>2020-07-04T14:00:04.252Z</time>
      </trkpt>
      <trkpt lat="45.87907" lon="4.65688">
        <ele>349.7</ele>
        <time>2020-07-04T14:00:09.420Z</time>
      </trkpt>
      <trkpt lat="45.87912" lon="4.65689">
        <ele>349.7</ele>
        <time>2020-07-04T14:00:14.591Z</time>
      </trkpt>
      <trkpt lat="45.87916" lon="4.65692">
        <ele>350.1</ele>
        <time>2020-07-04T14:00:19.765Z</time>
      </trkpt>
      <trkpt lat="45.87933" lon="4.65702">
        <ele>351.3</ele>
        <time>2020-07-04T14:00:24.950Z</time>
      </trkpt>
      <trkpt lat="45.87938" lon="4.65707">
        <ele>351.5</ele>
        <time>2020-07-04T14:00:30.138Z</time>
      </trkpt>
      <trkpt lat="45.87952" lon="4.65715">
        <ele>351.4</ele>
        <time>2020-07-04T14:00:35.335Z</time>
      </trkpt>
      <trkpt lat="45.87962" lon="4.65723">
        <ele>351.4</ele>
        <time>2020-07-04T14:00:40.539Z</time>
      </trkpt>
      <trkpt lat="45.8797" lon="4.65728">
        <ele>351.3</ele>
        <time>2020-07-04T14:00:45.748Z</time>
      </trkpt>
      <trkpt lat="45.87973" lon="4.6573">
        <ele>351.3</ele>
        <time>2020-07-04T14:00:50.959Z</time>
      </trkpt>
      <trkpt lat="45.87981" lon="4.6574">
        <ele>350.8</ele>
        <time>2020-07-04T14:00:56.177Z</time>
      </trkpt>
      <trkpt lat="45.87982" lon="4.65754">
        <ele>351.4</ele>
        <time>2020-07-04T14:01:01.401Z</time>
      </trkpt>
      <trkpt lat="45.87988" lon="4.65763">
        <ele>351.1</ele>
        <time>2020-07-04T14:01:06.630Z</time>
      </trkpt>
      <trkpt lat="45.87996" lon="4.65765">
        <ele>350.2</ele>
        <time>2020-07-04T14:01:11.864Z</time>
      </trkpt>
      <trkpt lat="45.87996" lon="4.65766">
        <ele>350.3</ele>
        <time>2020-07-04T14:01:17.098Z</time>
      </trkpt>
      <trkpt lat="45.87996" lon="4.65766">
        <ele>350.3</ele>
        <time>2020-07-04T14:01:22.332Z</time>
      </trkpt>
      <trkpt lat="45.87997" lon="4.65768">
        <ele>350.3</ele>
        <time>2020-07-04T14:01:27.567Z</time>
      </trkpt>
      <trkpt lat="45.87996" lon="4.65769">
        <ele>350.4</ele>
        <time>2020-07-04T14:01:32.803Z</time>
      </trkpt>
      <trkpt lat="45.88" lon="4.65765">
        <ele>349.8</ele>
        <time>2020-07-04T14:01:38.041Z</time>
      </trkpt>
      <trkpt lat="45.88008" lon="4.65758">
        <ele>348.5</ele>
        <time>2020-07-04T14:01:43.285Z</time>
      </trkpt>
      <trkpt lat="45.88009" lon="4.65755">
        <ele>348.2</ele>
        <time>2020-07-04T14:01:48.531Z</time>
      </trkpt>
      <trkpt lat="45.8801" lon="4.65754">
        <ele>348</ele>
        <time>2020-07-04T14:01:53.777Z</time>
      </trkpt>
      <trkpt lat="45.8801" lon="4.65754">
        <ele>348</ele>
        <time>2020-07-04T14:01:59.023Z</time>
      </trkpt>
      <trkpt lat="45.88011" lon="4.65753">
        <ele>347.9</ele>
        <time>2020-07-04T14:02:04.270Z</time>
      </trkpt>
      <trkpt lat="45.88013" lon="4.6575">
        <ele>347.5</ele>
        <time>2020-07-04T14:02:09.519Z</time>
      </trkpt>
      <trkpt lat="45.88014" lon="4.6575">
        <ele>347.4</ele>
        <time>2020-07-04T14:02:14.769Z</time>
      </trkpt>
      <trkpt lat="45.88017" lon="4.65751">
        <ele>347</ele>
        <time>2020-07-04T14:02:20.020Z</time>
      </trkpt>
      <trkpt lat="45.88018" lon="4.6575">
        <ele>346.9</ele>
        <time>2020-07-04T14:02:25.272Z</time>
      </trkpt>
      <trkpt lat="45.88018" lon="4.6575">
        <ele>346.9</ele>
        <time>2020-07-04T14:02:30.524Z</time>
      </trkpt>
      <trkpt lat="45.88018" lon="4.65749">
        <ele>346.8</ele>
        <time>2020-07-04T14:02:35.777Z</time>
      </trkpt>
      <trkpt lat="45.88018" lon="4.65749">
        <ele>346.8</ele>
        <time>2020-07-04T14:02:41.030Z</time>
      </trkpt>
      <trkpt lat="45.88018" lon="4.65749">
        <ele>346.8</ele>
        <time>2020-07-04T14:02:46.283Z</time>
      </trkpt>
      <trkpt lat="45.88018" lon="4.6575">
        <ele>346.9</ele>
        <time>2020-07-04T14:02:51.536Z</time>
      </trkpt>
      <trkpt lat="45.88018" lon="4.65749">
        <ele>346.8</ele>
        <time>2020-07-04T14:02:56.789Z</time>
      </trkpt>
      <trkpt lat="45.88018" lon="4.65749">
        <ele>346.8</ele>
        <time>2020-07-04T14:03:02.042Z</time>
      </trkpt>
      <trkpt lat="45.88019" lon="4.65748">
        <ele>346.7</ele>
        <time>2020-07-04T14:03:07.296Z</time>
      </trkpt>
      <trkpt lat="45.88019" lon="4.65748">
        <ele>346.7</ele>
        <time>2020-07-04T14:03:12.550Z</time>
      </trkpt>
      <trkpt lat="45.88018" lon="4.65748">
        <ele>346.8</ele>
        <time>2020-07-04T14:03:17.804Z</time>
      </trkpt>
      <trkpt lat="45.88018" lon="4.65747">
        <ele>346.7</ele>
        <time>2020-07-04T14:03:23.058Z</time>
      </trkpt>
      <trkpt lat="45.88017" lon="4.65747">
        <ele>346.9</ele>
        <time>2020-07-04T14:03:28.313Z</time>
      </trkpt>
      <trkpt lat="45.88017" lon="4.65747">
        <ele>346.9</ele>
        <time>2020-07-04T14:03:33.568Z</time>
      </trkpt>
      <trkpt lat="45.88016" lon="4.65747">
        <ele>347</ele>
        <time>2020-07-04T14:03:38.824Z</time>
      </trkpt>
      <trkpt lat="45.88016" lon="4.65747">
        <ele>347</ele>
        <time>2020-07-04T14:03:44.080Z</time>
      </trkpt>
      <trkpt lat="45.88015" lon="4.65747">
        <ele>347.1</ele>
        <time>2020-07-04T14:03:49.336Z</time>
      </trkpt>
      <trkpt lat="45.88015" lon="4.65748">
        <ele>347.1</ele>
        <time>2020-07-04T14:03:54.592Z</time>
      </trkpt>
      <trkpt lat="45.88015" lon="4.65748">
        <ele>347.1</ele>
        <time>2020-07-04T14:03:59.849Z</time>
      </trkpt>
      <trkpt lat="45.88015" lon="4.65747">
        <ele>347.1</ele>
        <time>2020-07-04T14:04:05.106Z</time>
      </trkpt>
      <trkpt lat="45.88014" lon="4.65746">
        <ele>347.2</ele>
        <time>2020-07-04T14:04:10.363Z</time>
      </trkpt>
      <trkpt lat="45.88014" lon="4.65745">
        <ele>347.1</ele>
        <time>2020-07-04T14:04:15.621Z</time>
      </trkpt>
      <trkpt lat="45.88014" lon="4.65745">
        <ele>347.1</ele>
        <time>2020-07-04T14:04:20.879Z</time>
      </trkpt>
      <trkpt lat="45.88014" lon="4.65746">
        <ele>347.2</ele>
        <time>2020-07-04T14:04:26.137Z</time>
      </trkpt>
      <trkpt lat="45.88013" lon="4.65745">
        <ele>347.2</ele>
        <time>2020-07-04T14:04:31.396Z</time>
      </trkpt>
      <trkpt lat="45.88013" lon="4.65745">
        <ele>347.2</ele>
        <time>2020-07-04T14:04:36.655Z</time>
      </trkpt>
      <trkpt lat="45.88013" lon="4.65745">
        <ele>347.2</ele>
        <time>2020-07-04T14:04:41.914Z</time>
      </trkpt>
      <trkpt lat="45.88013" lon="4.65745">
        <ele>347.2</ele>
        <time>2020-07-04T14:04:47.173Z</time>
      </trkpt>
      <trkpt lat="45.88013" lon="4.65745">
        <ele>347.2</ele>
        <time>2020-07-04T14:04:52.432Z</time>
      </trkpt>
      <trkpt lat="45.88013" lon="4.65744">
        <ele>347.2</ele>
        <time>2020-07-04T14:04:57.691Z</time>
      </trkpt>
      <trkpt lat="45.88013" lon="4.65743">
        <ele>347.1</ele>
        <time>2020-07-04T14:05:02.951Z</time>
      </trkpt>
      <trkpt lat="45.88012" lon="4.65741">
        <ele>347.2</ele>
        <time>2020-07-04T14:05:08.212Z</time>
      </trkpt>
      <trkpt lat="45.88012" lon="4.65741">
        <ele>347.2</ele>
        <time>2020-07-04T14:05:13.473Z</time>
      </trkpt>
      <trkpt lat="45.88011" lon="4.65741">
        <ele>347.3</ele>
        <time>2020-07-04T14:05:18.734Z</time>
      </trkpt>
      <trkpt lat="45.88012" lon="4.6574">
        <ele>347.2</ele>
        <time>2020-07-04T14:05:23.995Z</time>
      </trkpt>
      <trkpt lat="45.88012" lon="4.6574">
        <ele>347.2</ele>
        <time>2020-07-04T14:05:29.257Z</time>
      </trkpt>
      <trkpt lat="45.88018" lon="4.65731">
        <ele>346.4</ele>
        <time>2020-07-04T14:05:34.524Z</time>
      </trkpt>
      <trkpt lat="45.88028" lon="4.65718">
        <ele>345.1</ele>
        <time>2020-07-04T14:05:39.799Z</time>
      </trkpt>
      <trkpt lat="45.88047" lon="4.65692">
        <ele>341.7</ele>
        <time>2020-07-04T14:05:45.090Z</time>
      </trkpt>
      <trkpt lat="45.8805" lon="4.65685">
        <ele>341.2</ele>
        <time>2020-07-04T14:05:50.384Z</time>
      </trkpt>
      <trkpt lat="45.88053" lon="4.65679">
        <ele>340.7</ele>
        <time>2020-07-04T14:05:55.681Z</time>
      </trkpt>
      <trkpt lat="45.88058" lon="4.65667">
        <ele>339.5</ele>
        <time>2020-07-04T14:06:00.984Z</time>
      </trkpt>
      <trkpt lat="45.88059" lon="4.65659">
        <ele>338.8</ele>
        <time>2020-07-04T14:06:06.291Z</time>
      </trkpt>
      <trkpt lat="45.8806" lon="4.65653">
        <ele>338.3</ele>
        <time>2020-07-04T14:06:11.601Z</time>
      </trkpt>
      <trkpt lat="45.8806" lon="4.65648">
        <ele>338</ele>
        <time>2020-07-04T14:06:16.912Z</time>
      </trkpt>
      <trkpt lat="45.88059" lon="4.65647">
        <ele>338.1</ele>
        <time>2020-07-04T14:06:22.224Z</time>
      </trkpt>
      <trkpt lat="45.88056" lon="4.65645">
        <ele>338.6</ele>
        <time>2020-07-04T14:06:27.538Z</time>
      </trkpt>
      <trkpt lat="45.88053" lon="4.65644">
        <ele>338.6</ele>
        <time>2020-07-04T14:06:32.854Z</time>
      </trkpt>
      <trkpt lat="45.88044" lon="4.6564">
        <ele>338.7</ele>
        <time>2020-07-04T14:06:38.175Z</time>
      </trkpt>
      <trkpt lat="45.88043" lon="4.6564">
        <ele>338.7</ele>
        <time>2020-07-04T14:06:43.497Z</time>
      </trkpt>
      <trkpt lat="45.88039" lon="4.65639">
        <ele>338.8</ele>
        <time>2020-07-04T14:06:48.821Z</time>
      </trkpt>
      <trkpt lat="45.88036" lon="4.65639">
        <ele>338.9</ele>
        <time>2020-07-04T14:06:54.147Z</time>
      </trkpt>
      <trkpt lat="45.88034" lon="4.65638">
        <ele>338.9</ele>
        <time>2020-07-04T14:06:59.475Z</time>
      </trkpt>
      <trkpt lat="45.88026" lon="4.65638">
        <ele>339.2</ele>
        <time>2020-07-04T14:07:04.807Z</time>
      </trkpt>
      <trkpt lat="45.88025" lon="4.65638">
        <ele>339.3</ele>
        <time>2020-07-04T14:07:10.140Z</time>
      </trkpt>
      <trkpt lat="45.88022" lon="4.65637">
        <ele>339.3</ele>
        <time>2020-07-04T14:07:15.475Z</time>
      </trkpt>
      <trkpt lat="45.88019" lon="4.65637">
        <ele>339.4</ele>
        <time>2020-07-04T14:07:20.812Z</time>
      </trkpt>
      <trkpt lat="45.88018" lon="4.65637">
        <ele>339.4</ele>
        <time>2020-07-04T14:07:26.149Z</time>
      </trkpt>
      <trkpt lat="45.88012" lon="4.65636">
        <ele>339.6</ele>
        <time>2020-07-04T14:07:31.490Z</time>
      </trkpt>
      <trkpt lat="45.88008" lon="4.65636">
        <ele>339.7</ele>
        <time>2020-07-04T14:07:36.833Z</time>
      </trkpt>
      <trkpt lat="45.88002" lon="4.65636">
        <ele>340</ele>
        <time>2020-07-04T14:07:42.180Z</time>
      </trkpt>
      <trkpt lat="45.87998" lon="4.65636">
        <ele>340.1</ele>
        <time>2020-07-04T14:07:47.530Z</time>
      </trkpt>
      <trkpt lat="45.87985" lon="4.65636">
        <ele>340.9</ele>
        <time>2020-07-04T14:07:52.887Z</time>
      </trkpt>
      <trkpt lat="45.87983" lon="4.65636">
        <ele>341.1</ele>
        <time>2020-07-04T14:07:58.245Z</time>
      </trkpt>
      <trkpt lat="45.87976" lon="4.65634">
        <ele>341.5</ele>
        <time>2020-07-04T14:08:03.608Z</time>
      </trkpt>
      <trkpt lat="45.87961" lon="4.65635">
        <ele>341.6</ele>
        <time>2020-07-04T14:08:08.980Z</time>
      </trkpt>
      <trkpt lat="45.87959" lon="4.65635">
        <ele>341.6</ele>
        <time>2020-07-04T14:08:14.353Z</time>
      </trkpt>
      <trkpt lat="45.87953" lon="4.65636">
        <ele>341.5</ele>
        <time>2020-07-04T14:08:19.730Z</time>
      </trkpt>
      <trkpt lat="45.87943" lon="4.65634">
        <ele>341</ele>
        <time>2020-07-04T14:08:25.113Z</time>
      </trkpt>
      <trkpt lat="45.8793" lon="4.65634">
        <ele>340.7</ele>
        <time>2020-07-04T14:08:30.504Z</time>
      </trkpt>
      <trkpt lat="45.87928" lon="4.65634">
        <ele>340.7</ele>
        <time>2020-07-04T14:08:35.896Z</time>
      </trkpt>
      <trkpt lat="45.87911" lon="4.65634">
        <ele>340.3</ele>
        <time>2020-07-04T14:08:41.298Z</time>
      </trkpt>
      <trkpt lat="45.87897" lon="4.65634">
        <ele>340.4</ele>
        <time>2020-07-04T14:08:46.709Z</time>
      </trkpt>
      <trkpt lat="45.87895" lon="4.65635">
        <ele>340.6</ele>
        <time>2020-07-04T14:08:52.121Z</time>
      </trkpt>
      <trkpt lat="45.87881" lon="4.65635">
        <ele>340.3</ele>
        <time>2020-07-04T14:08:57.541Z</time>
      </trkpt>
      <trkpt lat="45.87862" lon="4.65637">
        <ele>339.5</ele>
        <time>2020-07-04T14:09:02.973Z</time>
      </trkpt>
      <trkpt lat="45.87856" lon="4.65637">
        <ele>339.2</ele>
        <time>2020-07-04T14:09:08.409Z</time>
      </trkpt>
      <trkpt lat="45.87852" lon="4.65636">
        <ele>338.8</ele>
        <time>2020-07-04T14:09:13.847Z</time>
      </trkpt>
      <trkpt lat="45.87839" lon="4.65636">
        <ele>338</ele>
        <time>2020-07-04T14:09:19.293Z</time>
      </trkpt>
      <trkpt lat="45.87824" lon="4.65636">
        <ele>337.1</ele>
        <time>2020-07-04T14:09:24.747Z</time>
      </trkpt>
      <trkpt lat="45.87809" lon="4.65636">
        <ele>337.2</ele>
        <time>2020-07-04T14:09:30.211Z</time>
      </trkpt>
      <trkpt lat="45.878" lon="4.65637">
        <ele>337.2</ele>
        <time>2020-07-04T14:09:35.680Z</time>
      </trkpt>
      <trkpt lat="45.87792" lon="4.65637">
        <ele>337</ele>
        <time>2020-07-04T14:09:41.154Z</time>
      </trkpt>
      <trkpt lat="45.87786" lon="4.65638">
        <ele>337</ele>
        <time>2020-07-04T14:09:46.632Z</time>
      </trkpt>
      <trkpt lat="45.87772" lon="4.65638">
        <ele>336.5</ele>
        <time>2020-07-04T14:09:52.118Z</time>
      </trkpt>
      <trkpt lat="45.87758" lon="4.65637">
        <ele>335.7</ele>
        <time>2020-07-04T14:09:57.612Z</time>
      </trkpt>
      <trkpt lat="45.87752" lon="4.65636">
        <ele>335.3</ele>
        <time>2020-07-04T14:10:03.110Z</time>
      </trkpt>
      <trkpt lat="45.87747" lon="4.65636">
        <ele>335.1</ele>
        <time>2020-07-04T14:10:08.611Z</time>
      </trkpt>
      <trkpt lat="45.87744" lon="4.65638">
        <ele>335.5</ele>
        <time>2020-07-04T14:10:14.114Z</time>
      </trkpt>
      <trkpt lat="45.87744" lon="4.6564">
        <ele>336</ele>
        <time>2020-07-04T14:10:19.618Z</time>
      </trkpt>
      <trkpt lat="45.87745" lon="4.6564">
        <ele>336</ele>
        <time>2020-07-04T14:10:25.122Z</time>
      </trkpt>
      <trkpt lat="45.87745" lon="4.6564">
        <ele>336</ele>
        <time>2020-07-04T14:10:30.626Z</time>
      </trkpt>
      <trkpt lat="45.87744" lon="4.6564">
        <ele>336</ele>
        <time>2020-07-04T14:10:36.130Z</time>
      </trkpt>
      <trkpt lat="45.87744" lon="4.65641">
        <ele>336.2</ele>
        <time>2020-07-04T14:10:41.635Z</time>
      </trkpt>
      <trkpt lat="45.87744" lon="4.65641">
        <ele>336.2</ele>
        <time>2020-07-04T14:10:47.140Z</time>
      </trkpt>
      <trkpt lat="45.87744" lon="4.65641">
        <ele>336.2</ele>
        <time>2020-07-04T14:10:52.645Z</time>
      </trkpt>
      <trkpt lat="45.87744" lon="4.65641">
        <ele>336.2</ele>
        <time>2020-07-04T14:10:58.150Z</time>
      </trkpt>
      <trkpt lat="45.87744" lon="4.65641">
        <ele>336.2</ele>
        <time>2020-07-04T14:11:03.655Z</time>
      </trkpt>
      <trkpt lat="45.87744" lon="4.65641">
        <ele>336.2</ele>
        <time>2020-07-04T14:11:09.160Z</time>
      </trkpt>
      <trkpt lat="45.87744" lon="4.6564">
        <ele>336</ele>
        <time>2020-07-04T14:11:14.665Z</time>
      </trkpt>
      <trkpt lat="45.87744" lon="4.6564">
        <ele>336</ele>
        <time>2020-07-04T14:11:20.170Z</time>
      </trkpt>
      <trkpt lat="45.87743" lon="4.6564">
        <ele>335.9</ele>
        <time>2020-07-04T14:11:25.675Z</time>
      </trkpt>
      <trkpt lat="45.87743" lon="4.6564">
        <ele>335.9</ele>
        <time>2020-07-04T14:11:31.180Z</time>
      </trkpt>
      <trkpt lat="45.87743" lon="4.6564">
        <ele>335.9</ele>
        <time>2020-07-04T14:11:36.685Z</time>
      </trkpt>
      <trkpt lat="45.87743" lon="4.6564">
        <ele>335.9</ele>
        <time>2020-07-04T14:11:42.191Z</time>
      </trkpt>
      <trkpt lat="45.87743" lon="4.6564">
        <ele>335.9</ele>
        <time>2020-07-04T14:11:47.697Z</time>
      </trkpt>
      <trkpt lat="45.87743" lon="4.6564">
        <ele>335.9</ele>
        <time>2020-07-04T14:11:53.203Z</time>
      </trkpt>
      <trkpt lat="45.87744" lon="4.6564">
        <ele>336</ele>
        <time>2020-07-04T14:11:58.709Z</time>
      </trkpt>
      <trkpt lat="45.87744" lon="4.6564">
        <ele>336</ele>
        <time>2020-07-04T14:12:04.215Z</time>
      </trkpt>
      <trkpt lat="45.87744" lon="4.6564">
        <ele>336</ele>
        <time>2020-07-04T14:12:09.721Z</time>
      </trkpt>
      <trkpt lat="45.87743" lon="4.6564">
        <ele>335.9</ele>
        <time>2020-07-04T14:12:15.227Z</time>
      </trkpt>
      <trkpt lat="45.87743" lon="4.6564">
        <ele>335.9</ele>
        <time>2020-07-04T14:12:20.733Z</time>
      </trkpt>
      <trkpt lat="45.87743" lon="4.6564">
        <ele>335.9</ele>
        <time>2020-07-04T14:12:26.239Z</time>
      </trkpt>
      <trkpt lat="45.87743" lon="4.6564">
        <ele>335.9</ele>
        <time>2020-07-04T14:12:31.745Z</time>
      </trkpt>
      <trkpt lat="45.87743" lon="4.6564">
        <ele>335.9</ele>
        <time>2020-07-04T14:12:37.252Z</time>
      </trkpt>
      <trkpt lat="45.87743" lon="4.65641">
        <ele>336.2</ele>
        <time>2020-07-04T14:12:42.759Z</time>
      </trkpt>
      <trkpt lat="45.87743" lon="4.65641">
        <ele>336.2</ele>
        <time>2020-07-04T14:12:48.266Z</time>
      </trkpt>
      <trkpt lat="45.87743" lon="4.65641">
        <ele>336.2</ele>
        <time>2020-07-04T14:12:53.773Z</time>
      </trkpt>
      <trkpt lat="45.87743" lon="4.65641">
        <ele>336.2</ele>
        <time>2020-07-04T14:12:59.280Z</time>
      </trkpt>
      <trkpt lat="45.87742" lon="4.65641">
        <ele>336.2</ele>
        <time>2020-07-04T14:13:04.787Z</time>
      </trkpt>
      <trkpt lat="45.87742" lon="4.65641">
        <ele>336.2</ele>
        <time>2020-07-04T14:13:10.294Z</time>
      </trkpt>
      <trkpt lat="45.87742" lon="4.65641">
        <ele>336.2</ele>
        <time>2020-07-04T14:13:15.801Z</time>
      </trkpt>
      <trkpt lat="45.87742" lon="4.65641">
        <ele>336.2</ele>
        <time>2020-07-04T14:13:21.308Z</time>
      </trkpt>
      <trkpt lat="45.87742" lon="4.65641">
        <ele>336.2</ele>
        <time>2020-07-04T14:13:26.816Z</time>
      </trkpt>
      <trkpt lat="45.87741" lon="4.65641">
        <ele>336.1</ele>
        <time>2020-07-04T14:13:32.324Z</time>
      </trkpt>
      <trkpt lat="45.87741" lon="4.65642">
        <ele>336.4</ele>
        <time>2020-07-04T14:13:37.832Z</time>
      </trkpt>
      <trkpt lat="45.8774" lon="4.65642">
        <ele>336.3</ele>
        <time>2020-07-04T14:13:43.341Z</time>
      </trkpt>
      <trkpt lat="45.87739" lon="4.65642">
        <ele>336.3</ele>
        <time>2020-07-04T14:13:48.850Z</time>
      </trkpt>
      <trkpt lat="45.87739" lon="4.65642">
        <ele>336.3</ele>
        <time>2020-07-04T14:13:54.359Z</time>
      </trkpt>
      <trkpt lat="45.87739" lon="4.65642">
        <ele>336.3</ele>
        <time>2020-07-04T14:13:59.868Z</time>
      </trkpt>
      <trkpt lat="45.87739" lon="4.65642">
        <ele>336.3</ele>
        <time>2020-07-04T14:14:05.377Z</time>
      </trkpt>
      <trkpt lat="45.87739" lon="4.65642">
        <ele>336.3</ele>
        <time>2020-07-04T14:14:10.886Z</time>
      </trkpt>
      <trkpt lat="45.87739" lon="4.65642">
        <ele>336.3</ele>
        <time>2020-07-04T14:14:16.396Z</time>
      </trkpt>
      <trkpt lat="45.87739" lon="4.65642">
        <ele>336.3</ele>
        <time>2020-07-04T14:14:21.906Z</time>
      </trkpt>
      <trkpt lat="45.87739" lon="4.65642">
        <ele>336.3</ele>
        <time>2020-07-04T14:14:27.416Z</time>
      </trkpt>
      <trkpt lat="45.8774" lon="4.65642">
        <ele>336.3</ele>
        <time>2020-07-04T14:14:32.926Z</time>
      </trkpt>
      <trkpt lat="45.87737" lon="4.65649">
        <ele>338</ele>
        <time>2020-07-04T14:14:38.440Z</time>
      </trkpt>
      <trkpt lat="45.87736" lon="4.65652">
        <ele>338.7</ele>
        <time>2020-07-04T14:14:43.955Z</time>
      </trkpt>
      <trkpt lat="45.8773" lon="4.65665">
        <ele>341.8</ele>
        <time>2020-07-04T14:14:49.477Z</time>
      </trkpt>
      <trkpt lat="45.87729" lon="4.65667">
        <ele>342.2</ele>
        <time>2020-07-04T14:14:55.000Z</time>
      </trkpt>
      <trkpt lat="45.87725" lon="4.65675">
        <ele>344.1</ele>
        <time>2020-07-04T14:15:00.527Z</time>
      </trkpt>
      <trkpt lat="45.87723" lon="4.6568">
        <ele>345.3</ele>
        <time>2020-07-04T14:15:06.057Z</time>
      </trkpt>
      <trkpt lat="45.87722" lon="4.65683">
        <ele>345.9</ele>
        <time>2020-07-04T14:15:11.588Z</time>
      </trkpt>
      <trkpt lat="45.87717" lon="4.65694">
        <ele>348</ele>
        <time>2020-07-04T14:15:17.124Z</time>
      </trkpt>
      <trkpt lat="45.87714" lon="4.65708">
        <ele>348.7</ele>
        <time>2020-07-04T14:15:22.667Z</time>
      </trkpt>
      <trkpt lat="45.87714" lon="4.65717">
        <ele>349.1</ele>
        <time>2020-07-04T14:15:28.213Z</time>
      </trkpt>
      <trkpt lat="45.87715" lon="4.65724">
        <ele>349.7</ele>
        <time>2020-07-04T14:15:33.762Z</time>
      </trkpt>
      <trkpt lat="45.87717" lon="4.65735">
        <ele>350.8</ele>
        <time>2020-07-04T14:15:39.316Z</time>
      </trkpt>
      <trkpt lat="45.8772" lon="4.6574">
        <ele>351.9</ele>
        <time>2020-07-04T14:15:44.873Z</time>
      </trkpt>
      <trkpt lat="45.87733" lon="4.65757">
        <ele>354.1</ele>
        <time>2020-07-04T14:15:50.441Z</time>
      </trkpt>
      <trkpt lat="45.87737" lon="4.65761">
        <ele>354.5</ele>
        <time>2020-07-04T14:15:56.011Z</time>
      </trkpt>
      <trkpt lat="45.8775" lon="4.65778">
        <ele>355.9</ele>
        <time>2020-07-04T14:16:01.592Z</time>
      </trkpt>
      <trkpt lat="45.87757" lon="4.65785">
        <ele>356.6</ele>
        <time>2020-07-04T14:16:07.178Z</time>
      </trkpt>
      <trkpt lat="45.87765" lon="4.6579">
        <ele>356.4</ele>
        <time>2020-07-04T14:16:12.769Z</time>
      </trkpt>
      <trkpt lat="45.87769" lon="4.65793">
        <ele>356.2</ele>
        <time>2020-07-04T14:16:18.363Z</time>
      </trkpt>
      <trkpt lat="45.87772" lon="4.65796">
        <ele>355.9</ele>
        <time>2020-07-04T14:16:23.959Z</time>
      </trkpt>
      <trkpt lat="45.87777" lon="4.65801">
        <ele>355.4</ele>
        <time>2020-07-04T14:16:29.559Z</time>
      </trkpt>
      <trkpt lat="45.8778" lon="4.65802">
        <ele>355.4</ele>
        <time>2020-07-04T14:16:35.161Z</time>
      </trkpt>
      <trkpt lat="45.87782" lon="4.65803">
        <ele>355.4</ele>
        <time>2020-07-04T14:16:40.764Z</time>
      </trkpt>
      <trkpt lat="45.87785" lon="4.65804">
        <ele>355.4</ele>
        <time>2020-07-04T14:16:46.369Z</time>
      </trkpt>
      <trkpt lat="45.87788" lon="4.65806">
        <ele>355.2</ele>
        <time>2020-07-04T14:16:51.976Z</time>
      </trkpt>
      <trkpt lat="45.878" lon="4.65809">
        <ele>355.4</ele>
        <time>2020-07-04T14:16:57.590Z</time>
      </trkpt>
      <trkpt lat="45.87806" lon="4.6581">
        <ele>355.5</ele>
        <time>2020-07-04T14:17:03.208Z</time>
      </trkpt>
      <trkpt lat="45.87813" lon="4.65813">
        <ele>355.5</ele>
        <time>2020-07-04T14:17:08.830Z</time>
      </trkpt>
      <trkpt lat="45.87828" lon="4.65817">
        <ele>355.8</ele>
        <time>2020-07-04T14:17:14.461Z</time>
      </trkpt>
      <trkpt lat="45.87839" lon="4.65819">
        <ele>356.2</ele>
        <time>2020-07-04T14:17:20.099Z</time>
      </trkpt>
      <trkpt lat="45.87843" lon="4.6582">
        <ele>356.1</ele>
        <time>2020-07-04T14:17:25.740Z</time>
      </trkpt>
      <trkpt lat="45.87849" lon="4.65821">
        <ele>356.1</ele>
        <time>2020-07-04T14:17:31.384Z</time>
      </trkpt>
      <trkpt lat="45.87864" lon="4.65822">
        <ele>356</ele>
        <time>2020-07-04T14:17:37.037Z</time>
      </trkpt>
      <trkpt lat="45.87866" lon="4.65821">
        <ele>356.1</ele>
        <time>2020-07-04T14:17:42.692Z</time>
      </trkpt>
      <trkpt lat="45.87877" lon="4.65818">
        <ele>356.3</ele>
        <time>2020-07-04T14:17:48.353Z</time>
      </trkpt>
      <trkpt lat="45.87883" lon="4.65816">
        <ele>356.5</ele>
        <time>2020-07-04T14:17:54.018Z</time>
      </trkpt>
      <trkpt lat="45.87889" lon="4.65815">
        <ele>356.6</ele>
        <time>2020-07-04T14:17:59.687Z</time>
      </trkpt>
      <trkpt lat="45.87899" lon="4.65812">
        <ele>356</ele>
        <time>2020-07-04T14:18:05.362Z</time>
      </trkpt>
      <trkpt lat="45.87903" lon="4.65812">
        <ele>355.7</ele>
        <time>2020-07-04T14:18:11.039Z</time>
      </trkpt>
      <trkpt lat="45.87916" lon="4.65811">
        <ele>354.7</ele>
        <time>2020-07-04T14:18:16.724Z</time>
      </trkpt>
      <trkpt lat="45.87924" lon="4.6581">
        <ele>354.3</ele>
        <time>2020-07-04T14:18:22.414Z</time>
      </trkpt>
      <trkpt lat="45.87926" lon="4.65809">
        <ele>354.3</ele>
        <time>2020-07-04T14:18:28.105Z</time>
      </trkpt>
      <trkpt lat="45.87936" lon="4.65802">
        <ele>354.5</ele>
        <time>2020-07-04T14:18:33.803Z</time>
      </trkpt>
      <trkpt lat="45.87941" lon="4.65798">
        <ele>354.6</ele>
        <time>2020-07-04T14:18:39.504Z</time>
      </trkpt>
      <trkpt lat="45.87944" lon="4.65795">
        <ele>354.8</ele>
        <time>2020-07-04T14:18:45.208Z</time>
      </trkpt>
      <trkpt lat="45.87945" lon="4.65791">
        <ele>355.1</ele>
        <time>2020-07-04T14:18:50.913Z</time>
      </trkpt>
      <trkpt lat="45.87945" lon="4.65791">
        <ele>355.1</ele>
        <time>2020-07-04T14:18:56.619Z</time>
      </trkpt>
      <trkpt lat="45.87946" lon="4.65791">
        <ele>355.1</ele>
        <time>2020-07-04T14:19:02.325Z</time>
      </trkpt>
      <trkpt lat="45.87946" lon="4.65789">
        <ele>355.3</ele>
        <time>2020-07-04T14:19:08.031Z</time>
      </trkpt>
      <trkpt lat="45.87945" lon="4.65789">
        <ele>355.4</ele>
        <time>2020-07-04T14:19:13.738Z</time>
      </trkpt>
      <trkpt lat="45.87938" lon="4.65785">
        <ele>356</ele>
        <time>2020-07-04T14:19:19.449Z</time>
      </trkpt>
      <trkpt lat="45.87937" lon="4.65783">
        <ele>355.9</ele>
        <time>2020-07-04T14:19:25.161Z</time>
      </trkpt>
      <trkpt lat="45.87936" lon="4.65782">
        <ele>355.9</ele>
        <time>2020-07-04T14:19:30.874Z</time>
      </trkpt>
      <trkpt lat="45.8793" lon="4.65778">
        <ele>356</ele>
        <time>2020-07-04T14:19:36.591Z</time>
      </trkpt>
      <trkpt lat="45.87927" lon="4.65776">
        <ele>356</ele>
        <time>2020-07-04T14:19:42.310Z</time>
      </trkpt>
      <trkpt lat="45.87921" lon="4.65773">
        <ele>356.2</ele>
        <time>2020-07-04T14:19:48.033Z</time>
      </trkpt>
      <trkpt lat="45.8792" lon="4.65772">
        <ele>356.2</ele>
        <time>2020-07-04T14:19:53.757Z</time>
      </trkpt>
      <trkpt lat="45.87918" lon="4.65771">
        <ele>356.2</ele>
        <time>2020-07-04T14:19:59.482Z</time>
      </trkpt>
      <trkpt lat="45.87913" lon="4.6577">
        <ele>356.5</ele>
        <time>2020-07-04T14:20:05.210Z</time>
      </trkpt>
      <trkpt lat="45.87912" lon="4.6577">
        <ele>356.5</ele>
        <time>2020-07-04T14:20:10.938Z</time>
      </trkpt>
      <trkpt lat="45.8791" lon="4.65769">
        <ele>356.6</ele>
        <time>2020-07-04T14:20:16.668Z</time>
      </trkpt>
      <trkpt lat="45.87908" lon="4.65769">
        <ele>356.7</ele>
        <time>2020-07-04T14:20:22.399Z</time>
      </trkpt>
      <trkpt lat="45.87906" lon="4.65769">
        <ele>356.8</ele>
        <time>2020-07-04T14:20:28.131Z</time>
      </trkpt>
      <trkpt lat="45.87897" lon="4.65769">
        <ele>357.3</ele>
        <time>2020-07-04T14:20:33.869Z</time>
      </trkpt>
      <trkpt lat="45.87893" lon="4.6577">
        <ele>357.7</ele>
        <time>2020-07-04T14:20:39.609Z</time>
      </trkpt>
      <trkpt lat="45.87893" lon="4.6577">
        <ele>357.7</ele>
        <time>2020-07-04T14:20:45.349Z</time>
      </trkpt>
      <trkpt lat="45.87893" lon="4.6577">
        <ele>357.7</ele>
        <time>2020-07-04T14:20:51.089Z</time>
      </trkpt>
      <trkpt lat="45.87893" lon="4.6577">
        <ele>357.7</ele>
        <time>2020-07-04T14:20:56.829Z</time>
      </trkpt>
      <trkpt lat="45.87888" lon="4.6577">
        <ele>357.9</ele>
        <time>2020-07-04T14:21:02.572Z</time>
      </trkpt>
      <trkpt lat="45.87878" lon="4.6577">
        <ele>358</ele>
        <time>2020-07-04T14:21:08.321Z</time>
      </trkpt>
      <trkpt lat="45.87869" lon="4.6577">
        <ele>358</ele>
        <time>2020-07-04T14:21:14.076Z</time>
      </trkpt>
      <trkpt lat="45.87859" lon="4.65764">
        <ele>357.7</ele>
        <time>2020-07-04T14:21:19.837Z</time>
      </trkpt>
      <trkpt lat="45.87848" lon="4.65758">
        <ele>357.3</ele>
        <time>2020-07-04T14:21:25.605Z</time>
      </trkpt>
      <trkpt lat="45.87847" lon="4.65757">
        <ele>357.3</ele>
        <time>2020-07-04T14:21:31.374Z</time>
      </trkpt>
      <trkpt lat="45.87839" lon="4.65753">
        <ele>357</ele>
        <time>2020-07-04T14:21:37.148Z</time>
      </trkpt>
      <trkpt lat="45.87838" lon="4.65752">
        <ele>357</ele>
        <time>2020-07-04T14:21:42.923Z</time>
      </trkpt>
      <trkpt lat="45.87833" lon="4.6575">
        <ele>356.8</ele>
        <time>2020-07-04T14:21:48.701Z</time>
      </trkpt>
      <trkpt lat="45.87831" lon="4.65749">
        <ele>356.8</ele>
        <time>2020-07-04T14:21:54.480Z</time>
      </trkpt>
      <trkpt lat="45.8783" lon="4.65748">
        <ele>356.7</ele>
        <time>2020-07-04T14:22:00.260Z</time>
      </trkpt>
      <trkpt lat="45.87818" lon="4.65742">
        <ele>356.4</ele>
        <time>2020-07-04T14:22:06.048Z</time>
      </trkpt>
      <trkpt lat="45.87809" lon="4.65737">
        <ele>356.1</ele>
        <time>2020-07-04T14:22:11.842Z</time>
      </trkpt>
      <trkpt lat="45.87804" lon="4.65734">
        <ele>355.8</ele>
        <time>2020-07-04T14:22:17.639Z</time>
      </trkpt>
      <trkpt lat="45.87797" lon="4.65731">
        <ele>355.4</ele>
        <time>2020-07-04T14:22:23.440Z</time>
      </trkpt>
      <trkpt lat="45.87787" lon="4.65729">
        <ele>354.9</ele>
        <time>2020-07-04T14:22:29.247Z</time>
      </trkpt>
      <trkpt lat="45.87772" lon="4.65726">
        <ele>354.2</ele>
        <time>2020-07-04T14:22:35.064Z</time>
      </trkpt>
      <trkpt lat="45.87758" lon="4.65723">
        <ele>353.5</ele>
        <time>2020-07-04T14:22:40.889Z</time>
      </trkpt>
      <trkpt lat="45.87746" lon="4.65726">
        <ele>353.2</ele>
        <time>2020-07-04T14:22:46.721Z</time>
      </trkpt>
      <trkpt lat="45.87741" lon="4.65727">
        <ele>353</ele>
        <time>2020-07-04T14:22:52.557Z</time>
      </trkpt>
      <trkpt lat="45.87739" lon="4.65728">
        <ele>353</ele>
        <time>2020-07-04T14:22:58.394Z</time>
      </trkpt>
      <trkpt lat="45.87734" lon="4.65731">
        <ele>352.9</ele>
        <time>2020-07-04T14:23:04.234Z</time>
      </trkpt>
      <trkpt lat="45.87728" lon="4.65734">
        <ele>352.7</ele>
        <time>2020-07-04T14:23:10.078Z</time>
      </trkpt>
      <trkpt lat="45.87725" lon="4.65735">
        <ele>352.7</ele>
        <time>2020-07-04T14:23:15.924Z</time>
      </trkpt>
      <trkpt lat="45.87723" lon="4.65736">
        <ele>352.6</ele>
        <time>2020-07-04T14:23:21.771Z</time>
      </trkpt>
      <trkpt lat="45.8772" lon="4.65737">
        <ele>351.8</ele>
        <time>2020-07-04T14:23:27.620Z</time>
      </trkpt>
      <trkpt lat="45.8772" lon="4.65741">
        <ele>352</ele>
        <time>2020-07-04T14:23:33.470Z</time>
      </trkpt>
      <trkpt lat="45.8772" lon="4.65742">
        <ele>352</ele>
        <time>2020-07-04T14:23:39.321Z</time>
      </trkpt>
      <trkpt lat="45.87721" lon="4.65744">
        <ele>352.4</ele>
        <time>2020-07-04T14:23:45.172Z</time>
      </trkpt>
      <trkpt lat="45.87723" lon="4.65748">
        <ele>353.2</ele>
        <time>2020-07-04T14:23:51.025Z</time>
      </trkpt>
      <trkpt lat="45.87723" lon="4.65749">
        <ele>353.2</ele>
        <time>2020-07-04T14:23:56.879Z</time>
      </trkpt>
      <trkpt lat="45.87726" lon="4.65753">
        <ele>353.6</ele>
        <time>2020-07-04T14:24:02.736Z</time>
      </trkpt>
      <trkpt lat="45.8773" lon="4.65759">
        <ele>354</ele>
        <time>2020-07-04T14:24:08.596Z</time>
      </trkpt>
      <trkpt lat="45.87737" lon="4.65769">
        <ele>354.9</ele>
        <time>2020-07-04T14:24:14.462Z</time>
      </trkpt>
      <trkpt lat="45.87739" lon="4.65771">
        <ele>355.1</ele>
        <time>2020-07-04T14:24:20.330Z</time>
      </trkpt>
      <trkpt lat="45.87745" lon="4.65777">
        <ele>355.6</ele>
        <time>2020-07-04T14:24:26.202Z</time>
      </trkpt>
      <trkpt lat="45.87749" lon="4.65783">
        <ele>356.1</ele>
        <time>2020-07-04T14:24:32.077Z</time>
      </trkpt>
      <trkpt lat="45.87755" lon="4.65788">
        <ele>356.2</ele>
        <time>2020-07-04T14:24:37.956Z</time>
      </trkpt>
      <trkpt lat="45.87765" lon="4.65795">
        <ele>355.7</ele>
        <time>2020-07-04T14:24:43.842Z</time>
      </trkpt>
      <trkpt lat="45.87767" lon="4.65796">
        <ele>355.7</ele>
        <time>2020-07-04T14:24:49.730Z</time>
      </trkpt>
      <trkpt lat="45.87771" lon="4.658">
        <ele>355.3</ele>
        <time>2020-07-04T14:24:55.621Z</time>
      </trkpt>
      <trkpt lat="45.87773" lon="4.65803">
        <ele>354.9</ele>
        <time>2020-07-04T14:25:01.513Z</time>
      </trkpt>
      <trkpt lat="45.87776" lon="4.65805">
        <ele>354.8</ele>
        <time>2020-07-04T14:25:07.407Z</time>
      </trkpt>
      <trkpt lat="45.87781" lon="4.65807">
        <ele>354.8</ele>
        <time>2020-07-04T14:25:13.304Z</time>
      </trkpt>
      <trkpt lat="45.87783" lon="4.65807">
        <ele>354.9</ele>
        <time>2020-07-04T14:25:19.202Z</time>
      </trkpt>
      <trkpt lat="45.87791" lon="4.65809">
        <ele>354.9</ele>
        <time>2020-07-04T14:25:25.105Z</time>
      </trkpt>
      <trkpt lat="45.87797" lon="4.6581">
        <ele>355.1</ele>
        <time>2020-07-04T14:25:31.012Z</time>
      </trkpt>
      <trkpt lat="45.87809" lon="4.65813">
        <ele>355.3</ele>
        <time>2020-07-04T14:25:36.926Z</time>
      </trkpt>
      <trkpt lat="45.87822" lon="4.65817">
        <ele>355.5</ele>
        <time>2020-07-04T14:25:42.848Z</time>
      </trkpt>
      <trkpt lat="45.87831" lon="4.65819">
        <ele>355.7</ele>
        <time>2020-07-04T14:25:48.776Z</time>
      </trkpt>
      <trkpt lat="45.87837" lon="4.6582">
        <ele>355.9</ele>
        <time>2020-07-04T14:25:54.708Z</time>
      </trkpt>
      <trkpt lat="45.87847" lon="4.6582">
        <ele>356.1</ele>
        <time>2020-07-04T14:26:00.646Z</time>
      </trkpt>
      <trkpt lat="45.87856" lon="4.65819">
        <ele>356.2</ele>
        <time>2020-07-04T14:26:06.589Z</time>
      </trkpt>
      <trkpt lat="45.87858" lon="4.6582">
        <ele>356.1</ele>
        <time>2020-07-04T14:26:12.533Z</time>
      </trkpt>
      <trkpt lat="45.8787" lon="4.65819">
        <ele>356.2</ele>
        <time>2020-07-04T14:26:18.485Z</time>
      </trkpt>
      <trkpt lat="45.87877" lon="4.65818">
        <ele>356.3</ele>
        <time>2020-07-04T14:26:24.441Z</time>
      </trkpt>
      <trkpt lat="45.87883" lon="4.65816">
        <ele>356.5</ele>
        <time>2020-07-04T14:26:30.400Z</time>
      </trkpt>
      <trkpt lat="45.87896" lon="4.65813">
        <ele>356.2</ele>
        <time>2020-07-04T14:26:36.367Z</time>
      </trkpt>
      <trkpt lat="45.87898" lon="4.65812">
        <ele>356.1</ele>
        <time>2020-07-04T14:26:42.336Z</time>
      </trkpt>
      <trkpt lat="45.87903" lon="4.65812">
        <ele>355.7</ele>
        <time>2020-07-04T14:26:48.307Z</time>
      </trkpt>
      <trkpt lat="45.87909" lon="4.65811">
        <ele>355.3</ele>
        <time>2020-07-04T14:26:54.282Z</time>
      </trkpt>
      <trkpt lat="45.87918" lon="4.65811">
        <ele>354.6</ele>
        <time>2020-07-04T14:27:00.263Z</time>
      </trkpt>
      <trkpt lat="45.8792" lon="4.65811">
        <ele>354.5</ele>
        <time>2020-07-04T14:27:06.245Z</time>
      </trkpt>
      <trkpt lat="45.8793" lon="4.65807">
        <ele>354.3</ele>
        <time>2020-07-04T14:27:12.233Z</time>
      </trkpt>
      <trkpt lat="45.87931" lon="4.65806">
        <ele>354.4</ele>
        <time>2020-07-04T14:27:18.222Z</time>
      </trkpt>
      <trkpt lat="45.87938" lon="4.658">
        <ele>354.6</ele>
        <time>2020-07-04T14:27:24.216Z</time>
      </trkpt>
      <trkpt lat="45.87942" lon="4.65798">
        <ele>354.6</ele>
        <time>2020-07-04T14:27:30.212Z</time>
      </trkpt>
      <trkpt lat="45.87949" lon="4.65793">
        <ele>354.7</ele>
        <time>2020-07-04T14:27:36.213Z</time>
      </trkpt>
      <trkpt lat="45.87964" lon="4.65785">
        <ele>354.5</ele>
        <time>2020-07-04T14:27:42.224Z</time>
      </trkpt>
      <trkpt lat="45.8798" lon="4.65778">
        <ele>352.8</ele>
        <time>2020-07-04T14:27:48.245Z</time>
      </trkpt>
      <trkpt lat="45.87983" lon="4.65778">
        <ele>352.4</ele>
        <time>2020-07-04T14:27:54.267Z</time>
      </trkpt>
      <trkpt lat="45.87988" lon="4.6578">
        <ele>351.9</ele>
        <time>2020-07-04T14:28:00.293Z</time>
      </trkpt>
      <trkpt lat="45.87991" lon="4.65778">
        <ele>351.5</ele>
        <time>2020-07-04T14:28:06.321Z</time>
      </trkpt>
      <trkpt lat="45.87995" lon="4.65779">
        <ele>351</ele>
        <time>2020-07-04T14:28:12.351Z</time>
      </trkpt>
      <trkpt lat="45.88002" lon="4.65781">
        <ele>350.3</ele>
        <time>2020-07-04T14:28:18.385Z</time>
      </trkpt>
      <trkpt lat="45.88011" lon="4.65783">
        <ele>349.3</ele>
        <time>2020-07-04T14:28:24.425Z</time>
      </trkpt>
      <trkpt lat="45.88012" lon="4.65782">
        <ele>349.1</ele>
        <time>2020-07-04T14:28:30.466Z</time>
      </trkpt>
      <trkpt lat="45.88014" lon="4.6578">
        <ele>348.8</ele>
        <time>2020-07-04T14:28:36.508Z</time>
      </trkpt>
      <trkpt lat="45.88016" lon="4.65777">
        <ele>348.4</ele>
        <time>2020-07-04T14:28:42.552Z</time>
      </trkpt>
      <trkpt lat="45.88017" lon="4.65775">
        <ele>348.2</ele>
        <time>2020-07-04T14:28:48.597Z</time>
      </trkpt>
      <trkpt lat="45.88023" lon="4.65773">
        <ele>347.4</ele>
        <time>2020-07-04T14:28:54.646Z</time>
      </trkpt>
      <trkpt lat="45.88028" lon="4.65778">
        <ele>347</ele>
        <time>2020-07-04T14:29:00.698Z</time>
      </trkpt>
      <trkpt lat="45.88032" lon="4.65781">
        <ele>346.7</ele>
        <time>2020-07-04T14:29:06.753Z</time>
      </trkpt>
      <trkpt lat="45.88033" lon="4.65783">
        <ele>346.7</ele>
        <time>2020-07-04T14:29:12.809Z</time>
      </trkpt>
      <trkpt lat="45.88036" lon="4.65786">
        <ele>346.4</ele>
        <time>2020-07-04T14:29:18.867Z</time>
      </trkpt>
      <trkpt lat="45.88042" lon="4.65793">
        <ele>344.9</ele>
        <time>2020-07-04T14:29:24.930Z</time>
      </trkpt>
      <trkpt lat="45.88044" lon="4.65794">
        <ele>344.5</ele>
        <time>2020-07-04T14:29:30.994Z</time>
      </trkpt>
      <trkpt lat="45.88054" lon="4.65803">
        <ele>342.2</ele>
        <time>2020-07-04T14:29:37.065Z</time>
      </trkpt>
      <trkpt lat="45.88055" lon="4.65804">
        <ele>342</ele>
        <time>2020-07-04T14:29:43.137Z</time>
      </trkpt>
      <trkpt lat="45.88056" lon="4.65805">
        <ele>341.8</ele>
        <time>2020-07-04T14:29:49.209Z</time>
      </trkpt>
      <trkpt lat="45.88057" lon="4.65805">
        <ele>341.6</ele>
        <time>2020-07-04T14:29:55.282Z</time>
      </trkpt>
      <trkpt lat="45.88057" lon="4.65806">
        <ele>341.5</ele>
        <time>2020-07-04T14:30:01.355Z</time>
      </trkpt>
      <trkpt lat="45.88057" lon="4.65806">
        <ele>341.5</ele>
        <time>2020-07-04T14:30:07.428Z</time>
      </trkpt>
      <trkpt lat="45.88058" lon="4.65806">
        <ele>341.4</ele>
        <time>2020-07-04T14:30:13.502Z</time>
      </trkpt>
      <trkpt lat="45.8806" lon="4.65805">
        <ele>341.3</ele>
        <time>2020-07-04T14:30:19.577Z</time>
      </trkpt>
      <trkpt lat="45.88061" lon="4.65804">
        <ele>341.3</ele>
        <time>2020-07-04T14:30:25.653Z</time>
      </trkpt>
      <trkpt lat="45.88063" lon="4.65807">
        <ele>340.8</ele>
        <time>2020-07-04T14:30:31.730Z</time>
      </trkpt>
      <trkpt lat="45.88133" lon="4.65597">
        <ele>331.4</ele>
      </trkpt>
      <trkpt lat="45.88222" lon="4.65376">
        <ele>310.6</ele>
      </trkpt>
    </trkseg>
  </trk>
</gpx>